AA3594 / N905JH 7700 Squawk Report (12th of July, 2020)

Aircraft E145 Reg No. N905JH Age N/A
Model ERJ-145 Jet engines 2 First flight 02-05
Registered 24-02-05 Rollout 02-05 Delivered 24-02-05
Construction No. 14500892 Line No. N/A Series LR
ADSHEX AC828F Airline name Envoy Air Owner Envoy Air
Airfield based Dallas-Fort Worth~TX~N First tracked N/A

Flight history for N905JH

Route Flight No Date Playback
???? N/A 2020-08-08 22:31:00
Cincinnati Northern Kentucky Intl (CVG) - Chicago Ohare Intl (ORD) AA3987 2020-08-08 01:02:00
Chicago Ohare Intl (ORD) - Cincinnati Northern Kentucky Intl (CVG) AA3972 2020-08-07 21:01:00
Cherry Capital Airport (TVC) - Chicago Ohare Intl (ORD) AA4121 2020-08-07 19:01:00
Springfield Branson Natl (SGF) - Chicago Ohare Intl (ORD) AA4129 2020-08-07 14:10:00
Chicago Ohare Intl (ORD) - Springfield Branson Natl (SGF) AA3626 2020-08-07 02:33:00
Chicago Ohare Intl (ORD) - Peoria Regional (PIA) - Chicago Ohare Intl (ORD) AA4106 2020-08-07 00:00:00
Hector International Airport (FAR) - Chicago Ohare Intl (ORD) AA4126 2020-08-06 20:17:00
Cincinnati Northern Kentucky Intl (CVG) - Chicago Ohare Intl (ORD) AA3764 2020-08-06 14:59:00
Miami Intl (MIA) - Cincinnati Northern Kentucky Intl (CVG) AA3676 2020-08-06 03:38:00
Norfolk Intl (ORF) - Miami Intl (MIA) AA3817 2020-08-05 23:13:00
Port Columbus (CMH) - Miami Intl (MIA) AA3775 2020-08-04 13:32:00
Miami Intl (MIA) - Port Columbus (CMH) AA3798 2020-08-04 02:21:00
Birmingham Intl (BHM) - Miami Intl (MIA) AA3380 2020-08-03 13:19:00
Miami Intl (MIA) - Birmingham Intl (BHM) AA3393 2020-08-03 02:11:00
Port Columbus (CMH) - Miami Intl (MIA) AA4087 2020-08-02 20:57:00
Miami Intl (MIA) - Port Columbus (CMH) AA3332 2020-08-02 16:38:00
Miami Intl (MIA) - Savannah Hilton Head Intl (SAV) AA3404 2020-08-02 13:29:00
Savannah Hilton Head Intl (SAV) - Miami Intl (MIA) AA3359 2020-08-02 13:32:00
Miami Intl (MIA) - Savannah Hilton Head Intl (SAV) AA3404 2020-08-02 02:48:00
Time Lat Lon Altitude Heading Speed Vertical Rate
2020-07-12 21:47:04 GMT 41.974339 -87.901932 0 347 4 0
2020-07-12 21:47:01 GMT 41.974312 -87.901848 0 357 3 0
2020-07-12 21:46:58 GMT 41.974251 -87.901810 0 1 4 0
2020-07-12 21:46:55 GMT 41.974209 -87.901817 0 1 5 0
2020-07-12 21:46:52 GMT 41.974178 -87.901833 0 1 6 0
2020-07-12 21:46:49 GMT 41.974098 -87.901833 0 1 6 0
2020-07-12 21:46:46 GMT 41.974018 -87.901833 0 1 6 0
2020-07-12 21:46:43 GMT 41.973942 -87.901833 0 0 9 0
2020-07-12 21:46:40 GMT 41.973900 -87.901840 0 1 12 0
2020-07-12 21:46:37 GMT 41.973721 -87.901833 0 1 11 0
2020-07-12 21:46:34 GMT 41.973560 -87.901833 0 2 11 0
2020-07-12 21:46:31 GMT 41.973320 -87.901840 0 2 11 0
2020-07-12 21:46:28 GMT 41.973320 -87.901840 0 1 12 0
2020-07-12 21:46:25 GMT 41.973148 -87.901848 0 359 12 0
2020-07-12 21:46:22 GMT 41.972988 -87.901871 0 352 12 0
2020-07-12 21:46:19 GMT 41.972778 -87.901833 0 2 11 0
2020-07-12 21:46:16 GMT 41.972660 -87.901840 0 354 10 0
2020-07-12 21:46:13 GMT 41.972519 -87.901840 0 357 11 0
2020-07-12 21:46:10 GMT 41.972370 -87.901848 0 350 12 0
2020-07-12 21:46:07 GMT 41.972221 -87.901779 0 310 9 0
2020-07-12 21:46:04 GMT 41.972099 -87.901649 0 314 11 0
2020-07-12 21:46:01 GMT 41.972000 -87.901443 0 344 11 0
2020-07-12 21:45:58 GMT 41.971851 -87.901367 0 348 9 0
2020-07-12 21:45:55 GMT 41.971748 -87.901321 0 353 9 0
2020-07-12 21:45:52 GMT 41.971439 -87.901314 0 357 12 0
2020-07-12 21:45:49 GMT 41.971439 -87.901314 0 357 14 0
2020-07-12 21:45:46 GMT 41.971272 -87.901299 0 3 14 0
2020-07-12 21:45:43 GMT 41.971081 -87.901299 0 3 15 0
2020-07-12 21:45:40 GMT 41.970871 -87.901314 0 0 13 0
2020-07-12 21:45:37 GMT 41.970718 -87.901337 0 31 13 0
2020-07-12 21:45:34 GMT 41.970570 -87.901413 0 36 14 0
2020-07-12 21:45:31 GMT 41.970421 -87.901543 0 41 15 0
2020-07-12 21:45:28 GMT 41.970249 -87.901741 0 58 13 0
2020-07-12 21:45:25 GMT 41.970161 -87.901947 0 54 13 0
2020-07-12 21:45:22 GMT 41.970058 -87.902138 0 61 15 0
2020-07-12 21:45:19 GMT 41.969971 -87.902367 0 59 14 0
2020-07-12 21:45:16 GMT 41.969860 -87.902618 0 57 15 0
2020-07-12 21:45:13 GMT 41.969730 -87.902832 0 64 15 0
2020-07-12 21:45:10 GMT 41.969650 -87.903122 0 63 15 0
2020-07-12 21:45:07 GMT 41.969540 -87.903381 0 64 17 0
2020-07-12 21:45:04 GMT 41.969460 -87.903633 0 70 18 0
2020-07-12 21:45:01 GMT 41.969379 -87.903938 0 70 17 0
2020-07-12 21:44:58 GMT 41.969292 -87.904221 0 73 19 0
2020-07-12 21:44:55 GMT 41.969189 -87.904549 0 65 18 0
2020-07-12 21:44:52 GMT 41.969109 -87.904846 0 79 16 0
2020-07-12 21:44:49 GMT 41.969059 -87.905144 0 77 17 0
2020-07-12 21:44:46 GMT 41.969028 -87.905479 0 93 19 0
2020-07-12 21:44:43 GMT 41.969040 -87.905853 0 85 18 0
2020-07-12 21:44:40 GMT 41.969009 -87.906189 0 97 18 0
2020-07-12 21:44:37 GMT 41.969028 -87.906540 0 89 23 0
2020-07-12 21:44:34 GMT 41.969070 -87.906921 0 86 17 0
2020-07-12 21:44:31 GMT 41.969059 -87.907280 0 88 19 0
2020-07-12 21:44:28 GMT 41.969051 -87.907623 0 87 16 0
2020-07-12 21:44:25 GMT 41.969028 -87.907921 0 89 18 0
2020-07-12 21:44:22 GMT 41.969051 -87.908272 0 97 18 0
2020-07-12 21:44:19 GMT 41.969040 -87.908607 0 91 17 0
2020-07-12 21:44:16 GMT 41.969051 -87.908920 0 91 19 0
2020-07-12 21:44:13 GMT 41.969059 -87.909264 0 85 16 0
2020-07-12 21:44:10 GMT 41.969040 -87.909538 0 91 19 0
2020-07-12 21:44:07 GMT 41.969051 -87.910202 0 85 16 0
2020-07-12 21:44:04 GMT 41.969051 -87.910202 0 84 16 0
2020-07-12 21:44:01 GMT 41.969040 -87.910507 0 90 16 0
2020-07-12 21:43:58 GMT 41.969051 -87.910812 0 83 15 0
2020-07-12 21:43:55 GMT 41.969021 -87.911057 0 90 13 0
2020-07-12 21:43:52 GMT 41.969040 -87.911362 0 85 13 0
2020-07-12 21:43:49 GMT 41.969040 -87.911598 0 90 13 0
2020-07-12 21:43:46 GMT 41.969021 -87.911858 0 91 13 0
2020-07-12 21:43:43 GMT 41.969021 -87.912132 0 86 13 0
2020-07-12 21:43:40 GMT 41.969009 -87.912338 0 91 8 0
2020-07-12 21:43:37 GMT 41.969021 -87.912468 0 82 11 0
2020-07-12 21:43:34 GMT 41.969009 -87.912682 0 94 11 0
2020-07-12 21:43:31 GMT 41.969021 -87.912903 0 107 8 0
2020-07-12 21:43:28 GMT 41.969028 -87.913048 0 172 2 0
2020-07-12 21:43:25 GMT 41.969021 -87.913094 0 174 3 0
2020-07-12 21:43:21 GMT 41.969040 -87.913162 0 173 1 0
2020-07-12 21:43:18 GMT 41.969028 -87.913101 0 172 1 0
2020-07-12 21:43:15 GMT 41.969009 -87.913116 0 171 2 0
2020-07-12 21:43:12 GMT 41.969021 -87.913147 0 172 0 0
2020-07-12 21:43:09 GMT 41.969021 -87.913170 0 172 0 0
2020-07-12 21:43:06 GMT 41.969040 -87.913162 0 172 1 0
2020-07-12 21:43:03 GMT 41.969028 -87.913139 0 172 0 0
2020-07-12 21:43:00 GMT 41.969040 -87.913162 0 172 0 0
2020-07-12 21:42:57 GMT 41.969040 -87.913162 0 172 0 0
2020-07-12 21:42:53 GMT 41.969028 -87.913116 0 172 0 0
2020-07-12 21:42:50 GMT 41.969040 -87.913177 0 170 1 0
2020-07-12 21:42:47 GMT 41.969040 -87.913132 0 166 1 0
2020-07-12 21:42:44 GMT 41.969040 -87.913109 0 165 0 0
2020-07-12 21:42:41 GMT 41.969040 -87.913132 0 165 0 0
2020-07-12 21:42:38 GMT 41.969009 -87.913094 0 168 2 0
2020-07-12 21:42:35 GMT 41.969040 -87.913139 0 171 0 0
2020-07-12 21:42:32 GMT 41.969040 -87.913162 0 171 0 0
2020-07-12 21:42:29 GMT 41.969028 -87.913162 0 174 0 0
2020-07-12 21:42:26 GMT 41.969028 -87.913162 0 174 0 0
2020-07-12 21:42:23 GMT 41.969028 -87.913147 0 175 0 0
2020-07-12 21:42:20 GMT 41.969028 -87.913139 0 175 1 0
2020-07-12 21:42:17 GMT 41.969028 -87.913170 0 175 3 0
2020-07-12 21:42:14 GMT 41.969040 -87.913101 0 173 1 0
2020-07-12 21:42:11 GMT 41.969040 -87.913071 0 179 0 0
2020-07-12 21:42:07 GMT 41.969051 -87.913116 0 178 1 0
2020-07-12 21:42:04 GMT 41.969051 -87.913116 0 175 0 0
2020-07-12 21:42:01 GMT 41.969040 -87.913116 0 176 1 0
2020-07-12 21:41:58 GMT 41.969051 -87.913147 0 174 1 0
2020-07-12 21:41:55 GMT 41.969028 -87.913048 0 169 1 0
2020-07-12 21:41:52 GMT 41.969028 -87.913048 0 170 2 0
2020-07-12 21:41:49 GMT 41.969040 -87.913078 0 173 2 0
2020-07-12 21:41:46 GMT 41.969040 -87.913139 0 174 2 0
2020-07-12 21:41:43 GMT 41.969028 -87.913147 0 174 0 0
2020-07-12 21:41:40 GMT 41.969040 -87.913063 0 175 3 0
2020-07-12 21:41:37 GMT 41.969040 -87.913139 0 175 0 0
2020-07-12 21:41:34 GMT 41.969021 -87.913109 0 175 0 0
2020-07-12 21:41:31 GMT 41.969040 -87.913094 0 174 0 0
2020-07-12 21:41:28 GMT 41.969028 -87.913162 0 181 1 0
2020-07-12 21:41:25 GMT 41.969028 -87.913139 0 179 2 0
2020-07-12 21:41:22 GMT 41.969028 -87.913132 0 179 1 0
2020-07-12 21:41:19 GMT 41.969028 -87.913101 0 181 2 0
2020-07-12 21:41:16 GMT 41.969070 -87.913116 0 180 2 0
2020-07-12 21:41:13 GMT 41.969028 -87.913139 0 181 3 0
2020-07-12 21:41:10 GMT 41.969040 -87.913109 0 184 1 0
2020-07-12 21:41:07 GMT 41.969040 -87.913139 0 192 1 0
2020-07-12 21:41:04 GMT 41.969040 -87.913139 0 193 1 0
2020-07-12 21:41:01 GMT 41.969021 -87.913147 0 186 1 0
2020-07-12 21:40:58 GMT 41.969028 -87.913193 0 183 3 0
2020-07-12 21:40:55 GMT 41.969021 -87.913116 0 182 2 0
2020-07-12 21:40:52 GMT 41.969021 -87.913162 0 179 4 0
2020-07-12 21:40:49 GMT 41.969028 -87.913094 0 175 0 0
2020-07-12 21:40:46 GMT 41.969028 -87.913078 0 176 2 0
2020-07-12 21:40:43 GMT 41.969021 -87.913116 0 182 1 0
2020-07-12 21:40:40 GMT 41.969028 -87.913116 0 181 2 0
2020-07-12 21:40:37 GMT 41.969028 -87.913132 0 179 0 0
2020-07-12 21:40:34 GMT 41.969021 -87.913116 0 177 1 0
2020-07-12 21:40:31 GMT 41.969051 -87.913109 0 177 0 0
2020-07-12 21:40:28 GMT 41.969028 -87.913139 0 178 0 0
2020-07-12 21:40:24 GMT 41.969040 -87.913139 0 178 0 0
2020-07-12 21:40:21 GMT 41.969028 -87.913132 0 178 2 0
2020-07-12 21:40:18 GMT 41.969051 -87.913147 0 177 1 0
2020-07-12 21:40:15 GMT 41.969028 -87.913132 0 171 1 0
2020-07-12 21:40:12 GMT 41.969040 -87.913139 0 163 2 0
2020-07-12 21:40:09 GMT 41.969028 -87.913116 0 160 2 0
2020-07-12 21:40:06 GMT 41.969051 -87.913063 0 160 1 0
2020-07-12 21:40:03 GMT 41.969040 -87.913017 0 164 1 0
2020-07-12 21:39:57 GMT 41.969009 -87.913101 0 167 2 0
2020-07-12 21:39:54 GMT 41.969009 -87.913109 0 167 2 0
2020-07-12 21:39:51 GMT 41.969059 -87.913116 0 167 2 0
2020-07-12 21:39:48 GMT 41.969040 -87.913094 0 163 0 0
2020-07-12 21:39:45 GMT 41.969021 -87.913094 0 163 1 0
2020-07-12 21:39:42 GMT 41.969059 -87.913116 0 162 2 0
2020-07-12 21:39:39 GMT 41.969028 -87.913116 0 162 0 0
2020-07-12 21:39:35 GMT 41.969028 -87.913101 0 168 3 0
2020-07-12 21:39:32 GMT 41.969040 -87.913139 0 169 0 0
2020-07-12 21:39:28 GMT 41.969028 -87.913170 0 165 2 0
2020-07-12 21:39:25 GMT 41.969051 -87.913094 0 168 2 0
2020-07-12 21:39:22 GMT 41.969028 -87.913147 0 168 2 0
2020-07-12 21:39:19 GMT 41.969028 -87.913162 0 167 1 0
2020-07-12 21:39:15 GMT 41.969040 -87.913132 0 165 2 0
2020-07-12 21:39:12 GMT 41.969051 -87.913139 0 163 2 0
2020-07-12 21:39:09 GMT 41.969021 -87.913101 0 163 0 0
2020-07-12 21:39:05 GMT 41.969051 -87.913101 0 168 2 0
2020-07-12 21:39:02 GMT 41.969028 -87.913147 0 169 0 0
2020-07-12 21:38:59 GMT 41.969028 -87.913017 0 165 1 0
2020-07-12 21:38:56 GMT 41.969028 -87.913116 0 173 2 0
2020-07-12 21:38:53 GMT 41.969028 -87.913116 0 173 1 0
2020-07-12 21:38:50 GMT 41.969040 -87.913094 0 174 2 0
2020-07-12 21:38:47 GMT 41.969028 -87.913132 0 174 1 0
2020-07-12 21:38:44 GMT 41.969021 -87.913162 0 178 1 0
2020-07-12 21:38:41 GMT 41.969021 -87.913162 0 179 0 0
2020-07-12 21:38:38 GMT 41.969028 -87.913170 0 181 0 0
2020-07-12 21:38:35 GMT 41.969028 -87.913162 0 180 0 0
2020-07-12 21:38:32 GMT 41.969028 -87.913139 0 180 0 0
2020-07-12 21:38:29 GMT 41.969021 -87.913139 0 179 2 0
2020-07-12 21:38:26 GMT 41.969009 -87.913139 0 170 3 0
2020-07-12 21:38:23 GMT 41.969040 -87.913063 0 169 2 0
2020-07-12 21:38:20 GMT 41.969021 -87.913078 0 171 2 0
2020-07-12 21:38:17 GMT 41.969040 -87.913132 0 175 1 0
2020-07-12 21:38:14 GMT 41.969021 -87.913193 0 169 3 0
2020-07-12 21:38:11 GMT 41.969021 -87.913033 0 173 3 0
2020-07-12 21:38:08 GMT 41.969059 -87.913132 0 176 1 0
2020-07-12 21:38:05 GMT 41.969040 -87.913116 0 176 1 0
2020-07-12 21:38:02 GMT 41.969040 -87.913147 0 175 1 0
2020-07-12 21:37:59 GMT 41.969040 -87.913101 0 167 0 0
2020-07-12 21:37:56 GMT 41.969028 -87.913109 0 167 0 0
2020-07-12 21:37:53 GMT 41.969040 -87.913116 0 167 0 0
2020-07-12 21:37:50 GMT 41.969040 -87.913132 0 167 0 0
2020-07-12 21:37:47 GMT 41.969040 -87.913116 0 165 0 0
2020-07-12 21:37:44 GMT 41.969028 -87.913116 0 164 0 0
2020-07-12 21:37:41 GMT 41.969040 -87.913139 0 164 0 0
2020-07-12 21:37:38 GMT 41.969051 -87.913147 0 168 0 0
2020-07-12 21:37:35 GMT 41.969040 -87.913116 0 168 0 0
2020-07-12 21:37:32 GMT 41.969051 -87.913116 0 168 1 0
2020-07-12 21:37:29 GMT 41.969051 -87.913162 0 168 1 0
2020-07-12 21:37:26 GMT 41.969040 -87.913162 0 167 1 0
2020-07-12 21:37:23 GMT 41.969028 -87.913132 0 163 0 0
2020-07-12 21:37:18 GMT 41.969040 -87.913132 0 163 0 0
2020-07-12 21:37:15 GMT 41.969028 -87.913132 0 163 0 0
2020-07-12 21:37:12 GMT 41.969021 -87.913147 0 160 2 0
2020-07-12 21:37:09 GMT 41.969021 -87.913162 0 156 2 0
2020-07-12 21:37:06 GMT 41.969040 -87.913071 0 154 3 0
2020-07-12 21:37:03 GMT 41.969028 -87.913094 0 160 1 0
2020-07-12 21:37:00 GMT 41.969051 -87.913109 0 163 1 0
2020-07-12 21:36:57 GMT 41.969028 -87.913177 0 165 2 0
2020-07-12 21:36:54 GMT 41.969028 -87.913109 0 163 2 0
2020-07-12 21:36:51 GMT 41.969028 -87.913116 0 162 1 0
2020-07-12 21:36:48 GMT 41.969040 -87.913109 0 162 0 0
2020-07-12 21:36:45 GMT 41.969051 -87.913139 0 160 1 0
2020-07-12 21:36:42 GMT 41.969021 -87.913116 0 157 0 0
2020-07-12 21:36:39 GMT 41.969028 -87.913139 0 157 2 0
2020-07-12 21:36:36 GMT 41.969021 -87.913109 0 158 2 0
2020-07-12 21:36:33 GMT 41.969040 -87.913132 0 158 1 0
2020-07-12 21:36:30 GMT 41.969028 -87.913162 0 159 0 0
2020-07-12 21:36:27 GMT 41.969009 -87.913139 0 159 1 0
2020-07-12 21:36:24 GMT 41.969009 -87.913139 0 160 2 0
2020-07-12 21:36:21 GMT 41.969070 -87.913177 0 158 3 0
2020-07-12 21:36:18 GMT 41.969021 -87.913139 0 156 2 0
2020-07-12 21:36:15 GMT 41.969021 -87.913094 0 156 0 0
2020-07-12 21:36:12 GMT 41.969040 -87.913109 0 157 2 0
2020-07-12 21:36:09 GMT 41.969040 -87.913109 0 159 0 0
2020-07-12 21:36:06 GMT 41.969040 -87.913170 0 159 2 0
2020-07-12 21:36:03 GMT 41.969028 -87.913132 0 157 0 0
2020-07-12 21:36:00 GMT 41.969040 -87.913139 0 158 2 0
2020-07-12 21:35:57 GMT 41.969040 -87.913139 0 158 1 0
2020-07-12 21:35:54 GMT 41.969021 -87.913109 0 158 2 0
2020-07-12 21:35:51 GMT 41.969051 -87.913116 0 158 0 0
2020-07-12 21:35:47 GMT 41.969051 -87.913109 0 158 1 0
2020-07-12 21:35:44 GMT 41.969040 -87.913101 0 160 1 0
2020-07-12 21:35:41 GMT 41.969040 -87.913116 0 160 0 0
2020-07-12 21:35:37 GMT 41.969028 -87.913109 0 160 0 0
2020-07-12 21:35:34 GMT 41.969028 -87.913101 0 161 0 0
2020-07-12 21:35:31 GMT 41.969021 -87.913094 0 158 0 0
2020-07-12 21:35:28 GMT 41.969040 -87.913139 0 153 3 0
2020-07-12 21:35:25 GMT 41.969028 -87.913109 0 153 1 0
2020-07-12 21:35:22 GMT 41.969040 -87.913109 0 153 2 0
2020-07-12 21:35:19 GMT 41.969040 -87.913132 0 152 0 0
2020-07-12 21:35:16 GMT 41.969051 -87.913101 0 152 0 0
2020-07-12 21:35:13 GMT 41.969051 -87.913101 0 152 0 0
2020-07-12 21:35:10 GMT 41.969028 -87.913116 0 152 0 0
2020-07-12 21:35:07 GMT 41.969040 -87.913147 0 152 1 0
2020-07-12 21:35:04 GMT 41.969028 -87.913109 0 148 1 0
2020-07-12 21:35:01 GMT 41.969040 -87.913109 0 150 2 0
2020-07-12 21:34:58 GMT 41.969021 -87.913147 0 150 1 0
2020-07-12 21:34:53 GMT 41.969040 -87.913147 0 144 0 0
2020-07-12 21:34:50 GMT 41.969051 -87.913162 0 139 1 0
2020-07-12 21:34:47 GMT 41.969028 -87.913116 0 136 0 0
2020-07-12 21:34:44 GMT 41.969040 -87.913078 0 135 0 0
2020-07-12 21:34:41 GMT 41.969028 -87.913139 0 135 1 0
2020-07-12 21:34:38 GMT 41.969040 -87.913132 0 135 1 0
2020-07-12 21:34:35 GMT 41.969028 -87.913139 0 134 0 0
2020-07-12 21:34:32 GMT 41.969040 -87.913101 0 134 0 0
2020-07-12 21:34:29 GMT 41.969040 -87.913132 0 136 0 0
2020-07-12 21:34:26 GMT 41.969040 -87.913147 0 136 0 0
2020-07-12 21:34:23 GMT 41.969028 -87.913147 0 136 1 0
2020-07-12 21:34:20 GMT 41.969059 -87.913116 0 134 1 0
2020-07-12 21:34:17 GMT 41.969021 -87.913147 0 138 0 0
2020-07-12 21:34:13 GMT 41.969028 -87.913132 0 138 1 0
2020-07-12 21:34:10 GMT 41.969009 -87.913147 0 136 2 0
2020-07-12 21:34:07 GMT 41.969028 -87.913132 0 132 2 0
2020-07-12 21:34:04 GMT 41.969051 -87.913109 0 133 2 0
2020-07-12 21:34:01 GMT 41.969028 -87.913132 0 135 0 0
2020-07-12 21:33:58 GMT 41.969009 -87.913147 0 134 1 0
2020-07-12 21:33:55 GMT 41.969040 -87.913109 0 133 2 0
2020-07-12 21:33:51 GMT 41.969040 -87.913132 0 132 0 0
2020-07-12 21:33:48 GMT 41.969040 -87.913116 0 132 1 0
2020-07-12 21:33:45 GMT 41.969028 -87.913116 0 136 0 0
2020-07-12 21:33:42 GMT 41.969040 -87.913109 0 136 1 0
2020-07-12 21:33:39 GMT 41.969021 -87.913139 0 136 0 0
2020-07-12 21:33:36 GMT 41.969028 -87.913094 0 136 2 0
2020-07-12 21:33:33 GMT 41.969009 -87.913139 0 136 1 0
2020-07-12 21:33:30 GMT 41.969028 -87.913139 0 135 0 0
2020-07-12 21:33:27 GMT 41.969040 -87.913109 0 135 1 0
2020-07-12 21:33:24 GMT 41.969051 -87.913078 0 136 3 0
2020-07-12 21:33:21 GMT 41.969040 -87.913132 0 138 0 0
2020-07-12 21:33:18 GMT 41.969040 -87.913147 0 138 0 0
2020-07-12 21:33:15 GMT 41.969040 -87.913116 0 135 1 0
2020-07-12 21:33:12 GMT 41.969040 -87.913132 0 135 0 0
2020-07-12 21:33:09 GMT 41.969028 -87.913109 0 135 1 0
2020-07-12 21:33:06 GMT 41.969040 -87.913132 0 135 0 0
2020-07-12 21:33:03 GMT 41.969021 -87.913116 0 135 0 0
2020-07-12 21:33:00 GMT 41.969028 -87.913132 0 136 0 0
2020-07-12 21:32:57 GMT 41.969028 -87.913132 0 136 0 0
2020-07-12 21:32:54 GMT 41.969028 -87.913116 0 136 0 0
2020-07-12 21:32:51 GMT 41.969040 -87.913132 0 136 0 0
2020-07-12 21:32:48 GMT 41.969040 -87.913116 0 134 0 0
2020-07-12 21:32:45 GMT 41.969051 -87.913132 0 134 0 0
2020-07-12 21:32:42 GMT 41.969051 -87.913132 0 134 1 0
2020-07-12 21:32:39 GMT 41.969021 -87.913139 0 134 1 0
2020-07-12 21:32:36 GMT 41.969059 -87.913132 0 133 1 0
2020-07-12 21:32:33 GMT 41.969051 -87.913132 0 133 1 0
2020-07-12 21:32:30 GMT 41.969070 -87.913170 0 133 3 0
2020-07-12 21:32:27 GMT 41.969009 -87.913101 0 131 1 0
2020-07-12 21:32:24 GMT 41.969040 -87.913132 0 131 0 0
2020-07-12 21:32:21 GMT 41.969028 -87.913132 0 131 0 0
2020-07-12 21:32:18 GMT 41.969028 -87.913139 0 132 0 0
2020-07-12 21:32:15 GMT 41.969021 -87.913116 0 133 2 0
2020-07-12 21:32:12 GMT 41.969028 -87.913132 0 136 1 0
2020-07-12 21:32:09 GMT 41.969021 -87.913139 0 136 0 0
2020-07-12 21:32:06 GMT 41.969051 -87.913116 0 136 1 0
2020-07-12 21:32:03 GMT 41.969051 -87.913116 0 136 0 0
2020-07-12 21:31:59 GMT 41.969028 -87.913116 0 136 0 0
2020-07-12 21:31:56 GMT 41.969040 -87.913139 0 136 1 0
2020-07-12 21:31:53 GMT 41.969040 -87.913139 0 140 1 0
2020-07-12 21:31:50 GMT 41.969040 -87.913132 0 140 0 0
2020-07-12 21:31:47 GMT 41.969028 -87.913170 0 139 1 0
2020-07-12 21:31:44 GMT 41.969040 -87.913132 0 135 0 0
2020-07-12 21:31:41 GMT 41.969021 -87.913109 0 135 2 0
2020-07-12 21:31:38 GMT 41.969021 -87.913162 0 137 2 0
2020-07-12 21:31:35 GMT 41.969028 -87.913147 0 137 1 0
2020-07-12 21:31:32 GMT 41.969028 -87.913139 0 138 1 0
2020-07-12 21:31:29 GMT 41.969040 -87.913193 0 138 1 0
2020-07-12 21:31:26 GMT 41.969051 -87.913147 0 130 1 0
2020-07-12 21:31:23 GMT 41.969051 -87.913139 0 120 2 0
2020-07-12 21:31:20 GMT 41.969028 -87.913094 0 121 1 0
2020-07-12 21:31:17 GMT 41.969051 -87.913132 0 120 0 0
2020-07-12 21:31:14 GMT 41.969040 -87.913162 0 120 0 0
2020-07-12 21:31:11 GMT 41.969040 -87.913162 0 120 0 0
2020-07-12 21:31:08 GMT 41.969040 -87.913147 0 120 0 0
2020-07-12 21:31:05 GMT 41.969040 -87.913170 0 117 0 0
2020-07-12 21:31:02 GMT 41.969021 -87.913116 0 117 0 0
2020-07-12 21:30:59 GMT 41.969021 -87.913116 0 117 1 0
2020-07-12 21:30:56 GMT 41.969021 -87.913116 0 117 1 0
2020-07-12 21:30:53 GMT 41.969028 -87.913116 0 117 2 0
2020-07-12 21:30:50 GMT 41.969040 -87.913162 0 117 1 0
2020-07-12 21:30:47 GMT 41.969051 -87.913177 0 119 2 0
2020-07-12 21:30:44 GMT 41.969021 -87.913132 0 119 1 0
2020-07-12 21:30:41 GMT 41.969028 -87.913132 0 117 0 0
2020-07-12 21:30:38 GMT 41.969009 -87.913116 0 117 2 0
2020-07-12 21:30:35 GMT 41.969040 -87.913132 0 115 0 0
2020-07-12 21:30:30 GMT 41.969028 -87.913132 0 118 0 0
2020-07-12 21:30:25 GMT 41.969040 -87.913139 0 118 0 0
2020-07-12 21:30:22 GMT 41.969040 -87.913132 0 118 0 0
2020-07-12 21:30:19 GMT 41.969040 -87.913162 0 118 1 0
2020-07-12 21:30:16 GMT 41.969028 -87.913162 0 93 1 0
2020-07-12 21:30:13 GMT 41.969051 -87.913269 0 86 7 0
2020-07-12 21:30:10 GMT 41.969051 -87.913269 0 82 12 0
2020-07-12 21:30:07 GMT 41.969021 -87.913544 0 90 22 0
2020-07-12 21:30:04 GMT 41.969009 -87.913910 0 91 27 0
2020-07-12 21:30:01 GMT 41.969021 -87.914467 0 91 33 0
2020-07-12 21:29:58 GMT 41.969028 -87.915169 0 88 41 0
2020-07-12 21:29:55 GMT 41.969021 -87.915993 0 89 51 0
2020-07-12 21:29:52 GMT 41.969021 -87.917068 0 89 74 0
2020-07-12 21:29:49 GMT 41.968990 -87.918419 0 90 90 0
2020-07-12 21:29:46 GMT 41.969009 -87.920151 700 90 95 0
2020-07-12 21:29:43 GMT 41.969040 -87.921928 700 89 106 128
2020-07-12 21:29:40 GMT 41.969002 -87.926277 675 89 123 128
2020-07-12 21:29:37 GMT 41.969002 -87.926277 700 90 124 -32
2020-07-12 21:29:34 GMT 41.968990 -87.928543 700 90 133 -32
2020-07-12 21:29:31 GMT 41.969021 -87.931023 725 89 138 -32
2020-07-12 21:29:28 GMT 41.968990 -87.933578 800 90 136 320
2020-07-12 21:29:25 GMT 41.969009 -87.936157 775 91 138 -480
2020-07-12 21:29:22 GMT 41.969009 -87.938560 850 88 137 -480
2020-07-12 21:29:19 GMT 41.968948 -87.941071 900 89 140 -480
2020-07-12 21:29:16 GMT 41.968948 -87.943741 900 89 135 -480
2020-07-12 21:29:13 GMT 41.968960 -87.946220 900 91 129 -480
2020-07-12 21:29:10 GMT 41.968960 -87.948692 950 88 138 832
2020-07-12 21:29:07 GMT 41.968941 -87.951286 1,000 91 136 -1088
2020-07-12 21:29:04 GMT 41.969002 -87.953743 1,100 88 137 -1088
2020-07-12 21:29:01 GMT 41.968899 -87.956322 1,100 89 142 -1088
2020-07-12 21:28:58 GMT 41.968922 -87.958939 1,100 89 138 -1088
2020-07-12 21:28:55 GMT 41.968922 -87.961533 1,125 89 138 -1088
2020-07-12 21:28:52 GMT 41.968990 -87.966553 1,300 92 141 -288
2020-07-12 21:28:49 GMT 41.968990 -87.966553 1,300 88 146 -288
2020-07-12 21:28:46 GMT 41.968891 -87.969276 1,300 90 137 -288
2020-07-12 21:28:43 GMT 41.968929 -87.971916 1,400 90 139 -288
2020-07-12 21:28:40 GMT 41.968971 -87.974373 1,400 90 131 -928
2020-07-12 21:28:37 GMT 41.968868 -87.976913 1,400 88 139 -928
2020-07-12 21:28:34 GMT 41.968880 -87.979446 1,400 90 142 -928
2020-07-12 21:28:31 GMT 41.968849 -87.982048 1,600 92 136 -928
2020-07-12 21:28:28 GMT 41.968941 -87.984673 1,600 90 139 -928
2020-07-12 21:28:25 GMT 41.968922 -87.987244 1,600 89 136 -928
2020-07-12 21:28:22 GMT 41.968929 -87.989731 1,600 89 140 -928
2020-07-12 21:28:19 GMT 41.968922 -87.992287 1,600 88 135 -928
2020-07-12 21:28:16 GMT 41.968861 -87.994957 1,700 88 138 -928
2020-07-12 21:28:13 GMT 41.968811 -87.997566 1,700 90 140 -928
2020-07-12 21:28:10 GMT 41.968819 -88.000153 1,700 89 137 -928
2020-07-12 21:28:07 GMT 41.968819 -88.002701 1,800 89 135 -928
2020-07-12 21:28:04 GMT 41.968819 -88.005119 1,800 89 138 -928
2020-07-12 21:28:01 GMT 41.968811 -88.007683 1,800 89 139 -928
2020-07-12 21:27:58 GMT 41.968788 -88.010246 1,900 89 139 -928
2020-07-12 21:27:55 GMT 41.968781 -88.012901 1,900 89 141 -928
2020-07-12 21:27:52 GMT 41.968731 -88.017921 2,000 89 137 -864
2020-07-12 21:27:49 GMT 41.968731 -88.017921 2,000 89 140 -864
2020-07-12 21:27:46 GMT 41.968712 -88.020607 2,100 89 136 -864
2020-07-12 21:27:43 GMT 41.968689 -88.023148 2,100 89 138 -864
2020-07-12 21:27:40 GMT 41.968651 -88.028236 2,200 90 142 -864
2020-07-12 21:27:37 GMT 41.968651 -88.028236 2,200 90 145 -864
2020-07-12 21:27:34 GMT 41.968639 -88.030952 2,200 90 143 -864
2020-07-12 21:27:31 GMT 41.968670 -88.033607 2,200 89 139 -864
2020-07-12 21:27:28 GMT 41.968658 -88.036186 2,300 89 143 -864
2020-07-12 21:27:25 GMT 41.968632 -88.038773 2,300 90 146 -864
2020-07-12 21:27:19 GMT 41.968590 -88.044281 2,400 90 139 -864
2020-07-12 21:27:16 GMT 41.968620 -88.047020 2,400 90 138 -864
2020-07-12 21:27:13 GMT 41.968651 -88.049652 2,500 89 141 -864
2020-07-12 21:27:10 GMT 41.968658 -88.052261 2,500 89 143 -864
2020-07-12 21:27:07 GMT 41.968639 -88.054863 2,600 90 164 -864
2020-07-12 21:27:04 GMT 41.968658 -88.058037 2,550 90 153 -896
2020-07-12 21:27:01 GMT 41.968643 -88.060974 2,575 90 156 -1280
2020-07-12 21:26:53 GMT 41.968658 -88.069153 2,875 89 165 -960
2020-07-12 21:26:50 GMT 41.968658 -88.070747 2,725 90 170 -704
2020-07-12 21:26:45 GMT 41.968689 -88.076828 2,800 90 171 -640
2020-07-12 21:26:42 GMT 41.968689 -88.079826 2,875 89 171 -704
2020-07-12 21:26:39 GMT 41.968689 -88.083260 2,900 89 171 -832
2020-07-12 21:26:35 GMT 41.968658 -88.088120 2,975 89 171 -1024
2020-07-12 21:26:30 GMT 41.968552 -88.092995 3,000 88 171 -1024
2020-07-12 21:26:27 GMT 41.968552 -88.095123 3,275 88 174 -960
2020-07-12 21:26:24 GMT 41.968472 -88.099174 3,125 89 174 -832
2020-07-12 21:26:21 GMT 41.968426 -88.102173 3,150 88 172 -1216
2020-07-12 21:26:17 GMT 41.968369 -88.105797 3,225 89 176 -832
2020-07-12 21:26:14 GMT 41.968323 -88.110542 3,300 88 174 -896
2020-07-12 21:26:10 GMT 41.968277 -88.114845 3,325 89 176 -832
2020-07-12 21:26:07 GMT 41.968231 -88.117096 3,375 89 177 -960
2020-07-12 21:26:03 GMT 41.968185 -88.121902 3,450 89 177 -1024
2020-07-12 21:25:59 GMT 41.968147 -88.130028 3,550 89 176 -768
2020-07-12 21:25:52 GMT 41.968147 -88.133095 3,600 89 177 -832
2020-07-12 21:25:49 GMT 41.968147 -88.136665 3,650 90 179 -896
2020-07-12 21:25:46 GMT 41.968185 -88.139999 3,675 91 181 -1024
2020-07-12 21:25:42 GMT 41.968323 -88.144997 3,800 91 182 -960
2020-07-12 21:25:39 GMT 41.968414 -88.149551 3,950 90 181 -1024
2020-07-12 21:25:35 GMT 41.968414 -88.152237 3,850 90 182 -1280
2020-07-12 21:25:31 GMT 41.968369 -88.158104 3,950 89 177 -1152
2020-07-12 21:25:28 GMT 41.968369 -88.159851 3,975 89 176 -1024
2020-07-12 21:25:25 GMT 41.968330 -88.163109 4,025 88 174 -1024
2020-07-12 21:25:20 GMT 41.968193 -88.170326 4,125 88 168 -832
2020-07-12 21:25:14 GMT 41.968147 -88.175377 4,200 88 171 -1088
2020-07-12 21:25:10 GMT 41.968052 -88.183937 4,400 90 173 -896
2020-07-12 21:25:03 GMT 41.968006 -88.186554 4,400 89 173 -960
2020-07-12 21:24:58 GMT 41.968002 -88.193626 4,475 90 173 -1024
2020-07-12 21:24:53 GMT 41.968002 -88.197929 4,575 90 172 -896
2020-07-12 21:24:48 GMT 41.968048 -88.204300 4,750 88 168 -832
2020-07-12 21:24:45 GMT 41.968098 -88.207443 4,675 90 168 -640
2020-07-12 21:24:38 GMT 41.967869 -88.217918 4,775 86 169 -832
2020-07-12 21:24:34 GMT 41.967869 -88.217918 4,800 85 170 -832
2020-07-12 21:24:30 GMT 41.967499 -88.223083 5,000 72 181 320
2020-07-12 21:24:27 GMT 41.966949 -88.228264 4,950 79 176 -512
2020-07-12 21:24:21 GMT 41.966469 -88.231461 4,950 79 176 -512
2020-07-12 21:24:17 GMT 41.965622 -88.236069 5,000 72 181 320
2020-07-12 21:24:14 GMT 41.964748 -88.240334 5,025 73 189 -192
2020-07-12 21:24:08 GMT 41.963333 -88.246429 5,025 72 188 64
2020-07-12 21:24:05 GMT 41.962654 -88.249344 5,025 72 188 128
2020-07-12 21:24:01 GMT 41.961319 -88.254921 5,025 72 187 64
2020-07-12 21:23:57 GMT 41.960232 -88.259560 5,000 72 187 -64
2020-07-12 21:23:54 GMT 41.959721 -88.261795 5,000 72 187 0
2020-07-12 21:23:51 GMT 41.959030 -88.264725 5,000 72 187 0
2020-07-12 21:23:48 GMT 41.958115 -88.268715 5,025 72 187 -64
2020-07-12 21:23:45 GMT 41.957153 -88.272713 5,025 72 187 -192
2020-07-12 21:23:40 GMT 41.956009 -88.277580 5,025 72 186 -64
2020-07-12 21:23:35 GMT 41.954498 -88.283760 5,025 71 186 -192
2020-07-12 21:23:31 GMT 41.953445 -88.288132 5,025 71 184 -64
2020-07-12 21:23:28 GMT 41.951668 -88.295334 5,025 71 183 320
2020-07-12 21:23:24 GMT 41.951668 -88.295334 5,025 71 182 -64
2020-07-12 21:23:21 GMT 41.951107 -88.297440 5,025 71 182 -64
2020-07-12 21:23:17 GMT 41.949783 -88.302803 5,025 71 181 64
2020-07-12 21:23:13 GMT 41.948872 -88.306442 5,025 71 181 -64
2020-07-12 21:23:10 GMT 41.947803 -88.310722 5,025 71 179 0
2020-07-12 21:23:05 GMT 41.946686 -88.315384 5,025 71 180 -192
2020-07-12 21:23:02 GMT 41.944519 -88.324150 5,025 72 182 512
2020-07-12 21:22:57 GMT 41.944519 -88.324150 5,025 72 182 512
2020-07-12 21:22:54 GMT 41.943924 -88.326767 5,025 72 182 64
2020-07-12 21:22:51 GMT 41.942867 -88.331291 5,025 72 181 512
2020-07-12 21:22:45 GMT 41.941517 -88.336784 5,000 71 180 128
2020-07-12 21:22:42 GMT 41.940720 -88.340004 4,975 71 181 0
2020-07-12 21:22:38 GMT 41.939621 -88.344246 4,975 71 181 -192
2020-07-12 21:22:35 GMT 41.938889 -88.347244 5,000 71 182 -192
2020-07-12 21:22:32 GMT 41.937927 -88.351173 5,000 0 176 -128
2020-07-12 21:22:28 GMT 41.937012 -88.355110 5,025 71 187 -384
2020-07-12 21:22:23 GMT 41.935558 -88.360611 5,050 67 186 0
2020-07-12 21:22:20 GMT 41.934814 -88.362976 5,050 64 183 -128
2020-07-12 21:22:16 GMT 41.932800 -88.367653 5,025 52 178 -192
2020-07-12 21:22:11 GMT 41.929596 -88.372025 5,000 36 176 128
2020-07-12 21:22:06 GMT 41.926064 -88.374725 5,000 18 176 -64
2020-07-12 21:22:03 GMT 41.924526 -88.375427 5,000 15 176 -320
2020-07-12 21:22:00 GMT 41.922134 -88.376144 5,000 6 176 -384
2020-07-12 21:21:57 GMT 41.919205 -88.376457 5,000 0 176 -384
2020-07-12 21:21:52 GMT 41.914799 -88.376518 5,025 0 176 -256
2020-07-12 21:21:49 GMT 41.912659 -88.376518 5,000 273 190 -320
2020-07-12 21:21:43 GMT 41.907166 -88.376396 5,025 357 173 -128
2020-07-12 21:21:40 GMT 41.905720 -88.376259 5,025 352 171 0
2020-07-12 21:21:34 GMT 41.901623 -88.375298 5,025 342 171 64
2020-07-12 21:21:31 GMT 41.899296 -88.374023 5,025 333 170 256
2020-07-12 21:21:28 GMT 41.896873 -88.372040 5,025 323 173 512
2020-07-12 21:21:25 GMT 41.894733 -88.369293 5,000 308 178 0
2020-07-12 21:21:20 GMT 41.892197 -88.364349 5,000 303 180 -192
2020-07-12 21:21:17 GMT 41.891663 -88.362976 5,000 297 181 -64
2020-07-12 21:21:14 GMT 41.890411 -88.359543 5,025 297 186 -64
2020-07-12 21:21:09 GMT 41.886978 -88.349556 5,000 295 185 -128
2020-07-12 21:21:05 GMT 41.886978 -88.349556 5,025 296 186 -192
2020-07-12 21:21:02 GMT 41.885651 -88.345810 5,025 296 187 -192
2020-07-12 21:20:58 GMT 41.884140 -88.341560 5,025 296 188 -64
2020-07-12 21:20:53 GMT 41.882862 -88.337997 5,025 297 188 128
2020-07-12 21:20:50 GMT 41.881714 -88.334885 5,025 297 186 -64
2020-07-12 21:20:47 GMT 41.878998 -88.327271 5,000 273 190 -320
2020-07-12 21:20:44 GMT 41.878998 -88.327271 5,025 294 182 -64
2020-07-12 21:20:40 GMT 41.877975 -88.323883 5,025 290 181 -64
2020-07-12 21:20:37 GMT 41.876816 -88.317909 5,000 273 190 -320
2020-07-12 21:20:30 GMT 41.876678 -88.311852 5,025 267 191 -320
2020-07-12 21:20:27 GMT 41.877274 -88.304237 5,025 263 191 -64
2020-07-12 21:20:23 GMT 41.877274 -88.304237 5,025 263 191 -64
2020-07-12 21:20:20 GMT 41.877602 -88.300758 5,025 263 189 64
2020-07-12 21:20:17 GMT 41.878052 -88.296310 5,025 263 187 192
2020-07-12 21:20:09 GMT 41.878967 -88.287941 5,025 263 187 0
2020-07-12 21:20:06 GMT 41.879326 -88.284470 5,025 263 187 64
2020-07-12 21:20:03 GMT 41.880116 -88.276680 5,000 263 187 0
2020-07-12 21:19:56 GMT 41.880535 -88.272530 5,025 263 187 -64
2020-07-12 21:19:52 GMT 41.881046 -88.267929 5,025 263 187 -192
2020-07-12 21:19:48 GMT 41.881420 -88.264221 5,025 263 187 -256
2020-07-12 21:19:44 GMT 41.881931 -88.259178 5,025 263 187 -64
2020-07-12 21:19:38 GMT 41.882629 -88.252487 5,025 263 186 -64
2020-07-12 21:19:35 GMT 41.882996 -88.248802 5,025 263 186 128
2020-07-12 21:19:31 GMT 41.883327 -88.244934 5,025 264 186 192
2020-07-12 21:19:28 GMT 41.883820 -88.239632 5,000 263 186 -128
2020-07-12 21:19:25 GMT 41.884354 -88.233437 5,025 263 186 -192
2020-07-12 21:19:22 GMT 41.884354 -88.233437 5,025 263 186 64
2020-07-12 21:19:17 GMT 41.884827 -88.228577 5,025 264 188 0
2020-07-12 21:19:14 GMT 41.885235 -88.223724 5,025 264 189 -128
2020-07-12 21:19:10 GMT 41.885513 -88.220711 5,025 264 189 -64
2020-07-12 21:19:07 GMT 41.885841 -88.216766 5,025 265 185 128
2020-07-12 21:19:04 GMT 41.886108 -88.212852 5,000 265 185 128
2020-07-12 21:19:00 GMT 41.886353 -88.209419 5,000 265 186 -832
2020-07-12 21:18:57 GMT 41.886726 -88.203865 5,025 266 188 192
2020-07-12 21:18:53 GMT 41.886932 -88.199867 5,025 266 187 -448
2020-07-12 21:18:44 GMT 41.887611 -88.189491 5,050 265 187 -64
2020-07-12 21:18:41 GMT 41.888264 -88.180679 5,000 265 182 512
2020-07-12 21:18:36 GMT 41.888264 -88.180679 5,050 264 187 256
2020-07-12 21:18:33 GMT 41.888580 -88.176765 5,025 264 185 448
2020-07-12 21:18:30 GMT 41.888866 -88.173332 5,025 264 184 384
2020-07-12 21:18:26 GMT 41.889473 -88.165733 5,025 264 182 -448
2020-07-12 21:18:20 GMT 41.889660 -88.163498 5,025 265 182 512
2020-07-12 21:18:13 GMT 41.881721 -88.146072 5,200 213 196 -1024
2020-07-12 21:18:10 GMT 41.883980 -88.144043 5,200 213 196 -1024
2020-07-12 21:18:07 GMT 41.886238 -88.142014 5,200 213 196 -1024
2020-07-12 21:18:04 GMT 41.888489 -88.139977 5,200 213 196 -1024
2020-07-12 21:18:01 GMT 41.890751 -88.137947 5,200 213 196 -1024
2020-07-12 21:17:58 GMT 41.893009 -88.135918 5,200 213 196 -1024
2020-07-12 21:17:55 GMT 41.895271 -88.133888 5,025 227 190 -384
2020-07-12 21:17:52 GMT 41.897530 -88.131859 5,200 213 196 -1024
2020-07-12 21:17:49 GMT 41.899792 -88.129822 5,050 222 191 -448
2020-07-12 21:17:46 GMT 41.902050 -88.127792 5,200 213 196 -1024
2020-07-12 21:17:43 GMT 41.904350 -88.125633 5,200 213 194 -1024
2020-07-12 21:17:40 GMT 41.906601 -88.123627 5,200 213 194 -1024
2020-07-12 21:17:37 GMT 41.908779 -88.121651 5,200 213 195 -1024
2020-07-12 21:17:34 GMT 41.911060 -88.119766 5,300 214 196 -1024
2020-07-12 21:17:31 GMT 41.913319 -88.117729 5,400 214 199 -1024
2020-07-12 21:17:28 GMT 41.915520 -88.115898 5,400 214 199 -1024
2020-07-12 21:17:25 GMT 41.917610 -88.113808 5,400 214 199 -1024
2020-07-12 21:17:22 GMT 41.919922 -88.111702 5,600 214 201 0
2020-07-12 21:17:19 GMT 41.922192 -88.109711 5,600 214 203 0
2020-07-12 21:17:16 GMT 41.924511 -88.107437 5,600 214 202 0
2020-07-12 21:17:13 GMT 41.926830 -88.105339 5,600 214 202 0
2020-07-12 21:17:10 GMT 41.929180 -88.103195 5,625 215 198 -896
2020-07-12 21:17:07 GMT 41.931358 -88.101143 5,700 214 205 0
2020-07-12 21:17:04 GMT 41.933781 -88.099091 5,800 214 205 0
2020-07-12 21:17:01 GMT 41.936119 -88.096863 5,800 214 204 0
2020-07-12 21:16:58 GMT 41.938450 -88.094757 5,900 214 205 0
2020-07-12 21:16:55 GMT 41.943130 -88.090271 5,900 214 205 0
2020-07-12 21:16:52 GMT 41.943130 -88.090271 5,900 214 203 0
2020-07-12 21:16:49 GMT 41.945549 -88.088226 6,000 213 202 0
2020-07-12 21:16:46 GMT 41.947922 -88.086090 6,000 214 201 0
2020-07-12 21:16:43 GMT 41.950169 -88.083839 6,000 213 201 0
2020-07-12 21:16:40 GMT 41.952469 -88.081963 6,000 214 204 0
2020-07-12 21:16:37 GMT 41.954868 -88.079773 6,000 214 202 0
2020-07-12 21:16:34 GMT 41.957150 -88.077438 6,000 213 200 0
2020-07-12 21:16:31 GMT 41.959572 -88.075417 6,000 213 199 0
2020-07-12 21:16:28 GMT 41.961819 -88.073402 6,000 213 200 0
2020-07-12 21:16:25 GMT 41.964088 -88.071228 6,000 214 200 0
2020-07-12 21:16:22 GMT 41.966461 -88.069359 6,000 214 200 0
2020-07-12 21:16:19 GMT 41.968735 -88.067093 6,000 213 198 0
2020-07-12 21:16:16 GMT 41.970901 -88.064949 6,000 212 199 0
2020-07-12 21:16:13 GMT 41.973339 -88.062958 6,000 212 197 0
2020-07-12 21:16:10 GMT 41.976013 -88.060661 6,025 214 199 0
2020-07-12 21:16:07 GMT 41.977921 -88.058807 6,000 212 195 0
2020-07-12 21:16:04 GMT 41.980251 -88.057007 6,000 212 196 -352
2020-07-12 21:16:01 GMT 41.982552 -88.055054 6,000 212 198 -352
2020-07-12 21:15:58 GMT 41.984711 -88.052933 6,000 212 196 -352
2020-07-12 21:15:55 GMT 41.987080 -88.051224 6,000 212 199 -352
2020-07-12 21:15:52 GMT 41.989319 -88.049187 6,000 212 200 -352
2020-07-12 21:15:49 GMT 41.991718 -88.047249 6,000 211 200 -352
2020-07-12 21:15:46 GMT 41.994011 -88.045319 6,000 212 201 -352
2020-07-12 21:15:43 GMT 41.998810 -88.041382 6,000 212 201 -352
2020-07-12 21:15:40 GMT 41.998810 -88.041382 6,000 212 201 -352
2020-07-12 21:15:37 GMT 42.001148 -88.039238 6,000 212 200 -352
2020-07-12 21:15:34 GMT 42.003399 -88.037193 6,000 212 201 -352
2020-07-12 21:15:31 GMT 42.008099 -88.033508 6,000 212 204 -352
2020-07-12 21:15:28 GMT 42.008099 -88.033508 6,000 213 205 -352
2020-07-12 21:15:25 GMT 42.010380 -88.031288 6,000 213 206 -352
2020-07-12 21:15:22 GMT 42.012852 -88.029327 6,000 213 206 -96
2020-07-12 21:15:19 GMT 42.015331 -88.027290 6,000 213 206 -96
2020-07-12 21:15:16 GMT 42.020100 -88.023079 6,000 213 204 -96
2020-07-12 21:15:13 GMT 42.020100 -88.023079 6,000 212 205 -96
2020-07-12 21:15:10 GMT 42.022461 -88.020981 6,000 213 205 1152
2020-07-12 21:15:07 GMT 42.024769 -88.018852 6,000 213 205 1152
2020-07-12 21:15:04 GMT 42.027260 -88.016800 6,000 213 204 1152
2020-07-12 21:15:01 GMT 42.029781 -88.014351 6,000 212 206 1152
2020-07-12 21:14:58 GMT 42.031898 -88.012604 6,000 213 206 1152
2020-07-12 21:14:55 GMT 42.034389 -88.010452 5,900 212 203 1152
2020-07-12 21:14:52 GMT 42.036800 -88.008392 5,900 213 202 1152
2020-07-12 21:14:49 GMT 42.039082 -88.006302 5,900 213 202 1152
2020-07-12 21:14:46 GMT 42.041592 -88.004311 5,800 213 204 1152
2020-07-12 21:14:43 GMT 42.043930 -88.002136 5,700 213 201 1152
2020-07-12 21:14:40 GMT 42.046169 -88.000008 5,700 212 202 1152
2020-07-12 21:14:37 GMT 42.048618 -87.998131 5,600 213 201 1152
2020-07-12 21:14:34 GMT 42.050789 -87.996010 5,600 213 201 1152
2020-07-12 21:14:31 GMT 42.053020 -87.993851 5,500 211 206 1152
2020-07-12 21:14:28 GMT 42.055462 -87.991798 5,500 211 206 1152
2020-07-12 21:14:25 GMT 42.057838 -87.989777 5,400 211 207 1152
2020-07-12 21:14:22 GMT 42.062649 -87.985313 5,300 207 200 704
2020-07-12 21:14:16 GMT 42.064812 -87.983398 5,300 206 208 704
2020-07-12 21:14:13 GMT 42.067402 -87.981697 5,200 209 206 -96
2020-07-12 21:14:10 GMT 42.069641 -87.979950 5,200 212 213 1408
2020-07-12 21:14:07 GMT 42.071861 -87.977921 5,200 214 220 1408
2020-07-12 21:14:04 GMT 42.074402 -87.976143 5,100 220 218 1408
2020-07-12 21:14:01 GMT 42.076698 -87.974289 5,000 230 219 1408
2020-07-12 21:13:58 GMT 42.078621 -87.971451 5,000 234 219 1408
2020-07-12 21:13:55 GMT 42.080608 -87.968681 4,900 242 212 1408
2020-07-12 21:13:52 GMT 42.083420 -87.961983 4,900 256 195 1408
2020-07-12 21:13:49 GMT 42.083420 -87.961983 4,800 273 182 1408
2020-07-12 21:13:46 GMT 42.084438 -87.958488 4,800 273 182 1408
2020-07-12 21:13:43 GMT 42.085209 -87.954773 4,700 279 179 1408
2020-07-12 21:13:40 GMT 42.084641 -87.951530 4,600 295 176 1408
2020-07-12 21:13:37 GMT 42.084179 -87.947960 4,600 305 172 1408
2020-07-12 21:13:34 GMT 42.083542 -87.944649 4,500 313 177 1408
2020-07-12 21:13:31 GMT 42.081879 -87.942207 4,500 313 177 1408
2020-07-12 21:13:28 GMT 42.080372 -87.939690 4,500 314 177 1408
2020-07-12 21:13:25 GMT 42.078579 -87.937248 4,300 315 178 1408
2020-07-12 21:13:22 GMT 42.076790 -87.934982 4,300 315 178 1504
2020-07-12 21:13:19 GMT 42.075100 -87.932663 4,300 315 180 1504
2020-07-12 21:13:16 GMT 42.073391 -87.930252 4,150 316 178 1408
2020-07-12 21:13:13 GMT 42.069729 -87.925591 4,100 315 180 1504
2020-07-12 21:13:10 GMT 42.069729 -87.925591 4,100 315 179 1504
2020-07-12 21:13:07 GMT 42.067871 -87.923210 4,000 315 178 1504
2020-07-12 21:13:04 GMT 42.066181 -87.920830 4,000 315 178 1504
2020-07-12 21:13:01 GMT 42.064362 -87.918282 3,850 316 184 1088
2020-07-12 21:12:58 GMT 42.062420 -87.916077 3,900 314 166 1504
2020-07-12 21:12:55 GMT 42.060879 -87.913818 3,700 314 180 1504
2020-07-12 21:12:52 GMT 42.059330 -87.911697 3,700 315 187 1504
2020-07-12 21:12:49 GMT 42.057499 -87.909271 3,700 315 187 1504
2020-07-12 21:12:46 GMT 42.055660 -87.906769 3,600 315 190 1504
2020-07-12 21:12:43 GMT 42.053829 -87.904312 3,500 315 190 1504
2020-07-12 21:12:40 GMT 42.050072 -87.899384 3,450 314 190 1504
2020-07-12 21:12:37 GMT 42.050072 -87.899384 3,375 314 196 1504
2020-07-12 21:12:34 GMT 42.048199 -87.896843 3,300 316 193 1504
2020-07-12 21:12:31 GMT 42.046219 -87.894386 3,300 315 197 1504
2020-07-12 21:12:28 GMT 42.044399 -87.891853 3,250 315 199 1504
2020-07-12 21:12:25 GMT 42.040581 -87.886726 3,100 314 197 1504
2020-07-12 21:12:22 GMT 42.040581 -87.886726 3,100 314 195 1536
2020-07-12 21:12:19 GMT 42.038689 -87.884193 3,000 313 199 1536
2020-07-12 21:12:16 GMT 42.036758 -87.881638 2,950 312 196 1536
2020-07-12 21:12:13 GMT 42.034870 -87.879112 2,900 312 195 1536
2020-07-12 21:12:10 GMT 42.031139 -87.874023 2,800 316 194 1536
2020-07-12 21:12:07 GMT 42.031139 -87.874023 2,725 321 194 1536
2020-07-12 21:12:04 GMT 42.029121 -87.871651 2,700 324 189 1536
2020-07-12 21:12:01 GMT 42.027061 -87.869667 2,625 330 189 1536
2020-07-12 21:11:58 GMT 42.022369 -87.867088 2,425 347 178 1536
2020-07-12 21:11:55 GMT 42.022369 -87.867088 2,200 353 178 1536
2020-07-12 21:11:52 GMT 42.019932 -87.866638 2,200 356 174 1536
2020-07-12 21:11:49 GMT 42.017620 -87.866501 2,200 1 177 1536
2020-07-12 21:11:46 GMT 42.015259 -87.866768 2,000 12 181 1536
2020-07-12 21:11:43 GMT 42.012959 -87.867470 1,850 20 182 1536
2020-07-12 21:11:40 GMT 42.010712 -87.868797 1,700 33 178 1536
2020-07-12 21:11:37 GMT 42.008678 -87.870659 1,575 46 174 1536
2020-07-12 21:11:34 GMT 42.006962 -87.872726 1,475 51 173 1536
2020-07-12 21:11:31 GMT 42.005589 -87.875168 1,500 58 176 1536
2020-07-12 21:11:28 GMT 42.003559 -87.881042 1,325 74 165 1536
2020-07-12 21:11:25 GMT 42.003559 -87.881042 1,250 79 163 1536
2020-07-12 21:11:22 GMT 42.002979 -87.884018 1,225 84 159 -128
2020-07-12 21:11:19 GMT 42.002731 -87.887001 1,175 85 159 -128
2020-07-12 21:11:16 GMT 42.002720 -87.889900 1,100 89 157 -128
2020-07-12 21:11:13 GMT 42.002701 -87.892868 1,000 91 156 -128
2020-07-12 21:11:10 GMT 42.002731 -87.895760 925 90 154 -128
2020-07-12 21:11:07 GMT 42.002769 -87.898651 850 89 153 -128
2020-07-12 21:11:04 GMT 42.002781 -87.901527 825 90 150 -128
2020-07-12 21:11:01 GMT 42.002800 -87.904289 800 90 147 -128
2020-07-12 21:10:58 GMT 42.002811 -87.907112 800 90 150 -128
2020-07-12 21:10:55 GMT 42.002838 -87.909920 800 90 147 -128
2020-07-12 21:10:52 GMT 42.002869 -87.912720 775 89 149 -128
2020-07-12 21:10:49 GMT 42.002850 -87.915489 775 89 150 -128
2020-07-12 21:10:46 GMT 42.002850 -87.918350 775 89 152 -128
2020-07-12 21:10:43 GMT 42.002819 -87.921150 775 89 146 -160
2020-07-12 21:10:40 GMT 42.002838 -87.923897 775 90 147 -160
2020-07-12 21:10:37 GMT 42.002861 -87.926682 800 90 151 -160
2020-07-12 21:10:34 GMT 42.002850 -87.929428 800 91 146 224
2020-07-12 21:10:31 GMT 42.002880 -87.932312 850 90 148 -928
2020-07-12 21:10:28 GMT 42.002911 -87.935059 875 90 143 -928
2020-07-12 21:10:25 GMT 42.002930 -87.937683 900 89 149 -928
2020-07-12 21:10:22 GMT 42.002918 -87.940437 1,000 89 153 -928
2020-07-12 21:10:19 GMT 42.002892 -87.943153 1,025 88 150 -160
2020-07-12 21:10:16 GMT 42.002861 -87.945969 1,025 88 150 -160
2020-07-12 21:10:13 GMT 42.002831 -87.948761 1,075 92 154 -576
2020-07-12 21:10:10 GMT 42.002811 -87.951477 1,100 91 150 -576
2020-07-12 21:10:07 GMT 42.002911 -87.954247 1,100 91 148 -576
2020-07-12 21:10:04 GMT 42.002831 -87.957024 1,175 90 150 -576
2020-07-12 21:10:01 GMT 42.002861 -87.959747 1,300 90 158 -576
2020-07-12 21:09:58 GMT 42.002899 -87.962669 1,275 89 155 -576
2020-07-12 21:09:55 GMT 42.002892 -87.965523 1,300 90 163 -576
2020-07-12 21:09:52 GMT 42.002831 -87.968437 1,300 88 153 -576
2020-07-12 21:09:49 GMT 42.002819 -87.971367 1,400 89 161 -576
2020-07-12 21:09:46 GMT 42.002949 -87.974503 1,500 89 156 -576
2020-07-12 21:09:43 GMT 42.002918 -87.977409 1,450 90 160 -576
2020-07-12 21:09:40 GMT 42.002941 -87.980278 1,500 89 161 -576
2020-07-12 21:09:37 GMT 42.002979 -87.986252 1,600 89 159 -576
2020-07-12 21:09:34 GMT 42.002979 -87.986252 1,575 89 155 -576
2020-07-12 21:09:31 GMT 42.002960 -87.989120 1,700 89 162 -576
2020-07-12 21:09:28 GMT 42.002930 -87.991966 1,700 89 164 -576
2020-07-12 21:09:25 GMT 42.002941 -87.995132 1,700 89 159 -576
2020-07-12 21:09:22 GMT 42.002930 -87.997932 1,800 89 156 -576
2020-07-12 21:09:19 GMT 42.002892 -88.000923 1,800 89 158 -768
2020-07-12 21:09:16 GMT 42.002838 -88.003983 1,900 89 158 -768
2020-07-12 21:09:13 GMT 42.002831 -88.006844 1,900 89 164 -768
2020-07-12 21:09:10 GMT 42.002789 -88.009880 2,000 89 170 -768
2020-07-12 21:09:07 GMT 42.002792 -88.013596 2,000 89 170 -768
2020-07-12 21:09:04 GMT 42.002762 -88.016151 2,100 89 170 -768
2020-07-12 21:09:01 GMT 42.002762 -88.019287 2,200 90 168 -768
2020-07-12 21:08:58 GMT 42.002731 -88.022408 2,200 90 171 -768
2020-07-12 21:08:55 GMT 42.002769 -88.025513 2,200 89 167 -768
2020-07-12 21:08:52 GMT 42.002750 -88.028740 2,300 89 168 -768
2020-07-12 21:08:49 GMT 42.002731 -88.031898 2,300 89 167 -768
2020-07-12 21:08:46 GMT 42.002701 -88.035004 2,400 90 170 -768
2020-07-12 21:08:43 GMT 42.002689 -88.038200 2,400 90 169 -768
2020-07-12 21:08:40 GMT 42.002739 -88.041298 2,400 90 169 -768
2020-07-12 21:08:37 GMT 42.002781 -88.044472 2,425 90 169 -896
2020-07-12 21:08:34 GMT 42.002831 -88.047539 2,500 90 171 -768
2020-07-12 21:08:31 GMT 42.002850 -88.050781 2,500 90 166 -768
2020-07-12 21:08:28 GMT 42.002861 -88.053726 2,600 89 180 -768
2020-07-12 21:08:23 GMT 42.002827 -88.058617 2,600 90 170 -960
2020-07-12 21:08:20 GMT 42.002781 -88.062828 2,675 90 169 -1152
2020-07-12 21:08:14 GMT 42.002827 -88.067879 2,750 90 170 -960
2020-07-12 21:08:10 GMT 42.002781 -88.072472 2,825 89 171 -768
2020-07-12 21:08:02 GMT 42.002701 -88.081261 2,950 89 171 -960
2020-07-12 21:07:59 GMT 42.002701 -88.089256 3,000 90 170 -832
2020-07-12 21:07:51 GMT 42.002655 -88.091812 3,125 90 168 -768
2020-07-12 21:07:44 GMT 42.002655 -88.099739 3,200 90 169 -704
2020-07-12 21:07:41 GMT 42.002655 -88.103111 3,750 90 169 -896
2020-07-12 21:07:33 GMT 42.002689 -88.111313 3,350 90 170 -960
2020-07-12 21:07:25 GMT 42.002735 -88.119804 3,475 90 172 -832
2020-07-12 21:07:22 GMT 42.002781 -88.122742 3,525 90 169 -1152
2020-07-12 21:07:18 GMT 42.002781 -88.126961 3,575 90 169 -832
2020-07-12 21:07:13 GMT 42.002781 -88.133667 3,675 89 171 -832
2020-07-12 21:07:08 GMT 42.002689 -88.143951 3,825 89 179 -960
2020-07-12 21:07:01 GMT 42.002689 -88.145737 3,825 89 179 -1088
2020-07-12 21:06:58 GMT 42.002640 -88.148865 3,875 89 183 -896
2020-07-12 21:06:52 GMT 42.002563 -88.156853 3,975 89 188 -576
2020-07-12 21:06:47 GMT 42.002502 -88.160873 4,000 89 189 -448
2020-07-12 21:06:42 GMT 42.002518 -88.168152 4,050 90 187 -192
2020-07-12 21:06:38 GMT 42.002548 -88.176720 4,050 89 200 64
2020-07-12 21:06:35 GMT 42.002548 -88.176720 4,050 90 189 -128
2020-07-12 21:06:32 GMT 42.002548 -88.180038 4,050 90 193 320
2020-07-12 21:06:26 GMT 42.002563 -88.185570 4,050 90 196 256
2020-07-12 21:06:20 GMT 42.002548 -88.193642 4,025 90 201 -64
2020-07-12 21:06:16 GMT 42.002548 -88.198181 4,025 90 202 -64
2020-07-12 21:06:11 GMT 42.002563 -88.205986 4,025 90 205 -64
2020-07-12 21:06:07 GMT 42.002594 -88.209290 4,025 90 205 0
2020-07-12 21:06:03 GMT 42.002594 -88.215935 4,025 90 205 -64
2020-07-12 21:06:00 GMT 42.002563 -88.222771 4,025 90 204 0
2020-07-12 21:05:53 GMT 42.002594 -88.228073 4,025 90 203 0
2020-07-12 21:05:49 GMT 42.002594 -88.232605 4,025 90 203 64
2020-07-12 21:05:46 GMT 42.002640 -88.238167 4,025 91 195 0
2020-07-12 21:05:43 GMT 42.002640 -88.241165 4,025 90 201 0
2020-07-12 21:05:39 GMT 42.002609 -88.246368 4,025 89 200 128
2020-07-12 21:05:35 GMT 42.002594 -88.250107 4,025 89 199 192
2020-07-12 21:05:32 GMT 42.002563 -88.254295 4,025 89 198 -64
2020-07-12 21:05:29 GMT 42.002548 -88.257965 4,025 89 198 64
2020-07-12 21:05:26 GMT 42.002472 -88.261665 4,025 89 197 64
2020-07-12 21:05:21 GMT 42.002426 -88.267532 4,025 88 196 -64
2020-07-12 21:05:18 GMT 42.002361 -88.271629 4,025 88 195 0
2020-07-12 21:05:12 GMT 42.002174 -88.279427 4,025 88 195 0
2020-07-12 21:05:09 GMT 42.002106 -88.283073 4,025 89 195 64
2020-07-12 21:05:04 GMT 42.002060 -88.288383 4,025 89 195 64
2020-07-12 21:04:58 GMT 42.002174 -88.300697 4,025 91 195 -64
2020-07-12 21:04:54 GMT 42.002174 -88.300697 4,025 91 194 -64
2020-07-12 21:04:48 GMT 42.002361 -88.307915 4,025 93 194 128
2020-07-12 21:04:44 GMT 42.002747 -88.313408 4,025 100 196 64
2020-07-12 21:04:41 GMT 42.003342 -88.317284 4,025 105 196 -192
2020-07-12 21:04:38 GMT 42.003990 -88.320366 4,025 107 197 -448
2020-07-12 21:04:32 GMT 42.005573 -88.325859 4,025 119 195 0
2020-07-12 21:04:29 GMT 42.006783 -88.329437 4,025 117 198 -512
2020-07-12 21:04:26 GMT 42.007996 -88.332504 4,025 119 197 -128
2020-07-12 21:04:23 GMT 42.010025 -88.337440 4,025 119 195 0
2020-07-12 21:04:20 GMT 42.011078 -88.340004 4,000 119 195 0
2020-07-12 21:04:17 GMT 42.012463 -88.343170 4,000 119 195 128
2020-07-12 21:04:11 GMT 42.014557 -88.348221 4,000 119 196 -64
2020-07-12 21:04:08 GMT 42.017864 -88.356010 4,025 120 201 -448
2020-07-12 21:04:05 GMT 42.017864 -88.356010 4,050 120 203 -64
2020-07-12 21:03:59 GMT 42.020702 -88.362526 4,050 120 205 320
2020-07-12 21:03:55 GMT 42.022053 -88.365593 4,050 120 207 0
2020-07-12 21:03:52 GMT 42.024307 -88.370712 4,050 122 205 64
2020-07-12 21:03:49 GMT 42.027267 -88.376961 4,025 127 205 256
2020-07-12 21:03:46 GMT 42.027267 -88.376961 4,050 125 205 192
2020-07-12 21:03:42 GMT 42.029736 -88.381500 4,025 130 205 -64
2020-07-12 21:03:38 GMT 42.031734 -88.384560 4,025 137 203 192
2020-07-12 21:03:33 GMT 42.034763 -88.388397 4,025 139 203 64
2020-07-12 21:03:28 GMT 42.038486 -88.392738 4,025 139 203 -64
2020-07-12 21:03:25 GMT 42.041325 -88.395996 4,025 139 202 -64
2020-07-12 21:03:20 GMT 42.044167 -88.399254 4,025 140 202 0
2020-07-12 21:03:16 GMT 42.046646 -88.402054 4,025 140 203 128
2020-07-12 21:03:13 GMT 42.049984 -88.405708 4,025 140 203 128
2020-07-12 21:03:10 GMT 42.051544 -88.407478 4,025 140 203 64
2020-07-12 21:03:05 GMT 42.055477 -88.411903 4,025 139 204 -128
2020-07-12 21:03:02 GMT 42.057358 -88.414040 4,000 139 204 -128
2020-07-12 21:02:58 GMT 42.060516 -88.417656 4,050 139 205 -384
2020-07-12 21:02:55 GMT 42.065022 -88.422760 4,050 140 204 -384
2020-07-12 21:02:52 GMT 42.065022 -88.422760 4,050 140 203 -448
2020-07-12 21:02:47 GMT 42.068233 -88.426208 4,075 141 202 -64
2020-07-12 21:02:44 GMT 42.072887 -88.431320 4,075 141 195 -320
2020-07-12 21:02:40 GMT 42.076172 -88.434883 4,075 141 195 -320
2020-07-12 21:02:36 GMT 42.076172 -88.434883 4,025 141 196 256
2020-07-12 21:02:33 GMT 42.078846 -88.437767 4,000 141 196 256
2020-07-12 21:02:26 GMT 42.082851 -88.442047 4,000 140 196 -64
2020-07-12 21:02:22 GMT 42.086105 -88.445557 4,025 140 196 -128
2020-07-12 21:02:17 GMT 42.093475 -88.453552 4,025 141 196 -192
2020-07-12 21:02:12 GMT 42.093475 -88.453552 4,025 141 196 -448
2020-07-12 21:02:09 GMT 42.094894 -88.455109 4,425 140 207 -1216
2020-07-12 21:02:05 GMT 42.100960 -88.461723 4,075 140 196 -320
2020-07-12 21:02:01 GMT 42.104507 -88.465599 4,150 140 201 -896
2020-07-12 21:01:56 GMT 42.104507 -88.465599 4,150 140 201 -896
2020-07-12 21:01:53 GMT 42.106247 -88.467468 4,150 140 201 -896
2020-07-12 21:01:50 GMT 42.108261 -88.469719 4,200 140 203 -1344
2020-07-12 21:01:45 GMT 42.112106 -88.473839 4,275 141 205 -896
2020-07-12 21:01:41 GMT 42.115810 -88.477943 4,350 140 207 -1152
2020-07-12 21:01:37 GMT 42.119202 -88.481705 4,425 140 208 -384
2020-07-12 21:01:34 GMT 42.120838 -88.483505 4,500 140 208 -1024
2020-07-12 21:01:30 GMT 42.123642 -88.486633 4,525 140 209 -1280
2020-07-12 21:01:26 GMT 42.126068 -88.489319 4,775 140 210 -1344
2020-07-12 21:01:23 GMT 42.129215 -88.492767 4,650 140 211 -1344
2020-07-12 21:01:19 GMT 42.131516 -88.495308 4,875 140 212 -1152
2020-07-12 21:01:15 GMT 42.135315 -88.499474 4,775 140 213 -896
2020-07-12 21:01:12 GMT 42.137131 -88.501518 4,850 140 214 -960
2020-07-12 21:01:09 GMT 42.139435 -88.504112 4,875 140 215 -704
2020-07-12 21:01:06 GMT 42.142181 -88.507233 4,925 140 217 -640
2020-07-12 21:01:02 GMT 42.145138 -88.510521 4,975 139 219 -576
2020-07-12 21:00:58 GMT 42.147812 -88.513535 5,000 139 219 -320
2020-07-12 21:00:55 GMT 42.150723 -88.516907 5,000 139 219 0
2020-07-12 21:00:51 GMT 42.153397 -88.519905 5,025 140 220 -320
2020-07-12 21:00:48 GMT 42.156124 -88.522789 5,025 142 220 -192
2020-07-12 21:00:44 GMT 42.159897 -88.526398 5,025 150 222 128
2020-07-12 21:00:41 GMT 42.161198 -88.527382 5,025 157 223 0
2020-07-12 21:00:38 GMT 42.164795 -88.529579 5,025 161 225 -128
2020-07-12 21:00:34 GMT 42.168598 -88.531029 5,050 168 226 64
2020-07-12 21:00:31 GMT 42.172531 -88.531639 5,025 177 227 64
2020-07-12 21:00:28 GMT 42.175259 -88.531662 5,025 186 226 -64
2020-07-12 21:00:24 GMT 42.179214 -88.530830 5,050 194 225 -512
2020-07-12 21:00:21 GMT 42.182194 -88.529617 5,025 234 216 192
2020-07-12 21:00:18 GMT 42.185917 -88.527260 5,050 212 219 0
2020-07-12 21:00:14 GMT 42.189148 -88.524338 5,050 219 217 0
2020-07-12 21:00:11 GMT 42.193459 -88.518318 5,025 236 215 256
2020-07-12 21:00:07 GMT 42.193459 -88.518318 5,025 236 215 192
2020-07-12 21:00:04 GMT 42.195236 -88.514412 5,025 241 215 256
2020-07-12 21:00:00 GMT 42.196625 -88.510269 5,000 255 215 128
2020-07-12 20:59:57 GMT 42.197601 -88.505608 5,025 265 214 -128
2020-07-12 20:59:53 GMT 42.198166 -88.501114 5,025 264 215 -640
2020-07-12 20:59:49 GMT 42.198578 -88.496368 5,025 265 214 -256
2020-07-12 20:59:46 GMT 42.198906 -88.491806 5,025 265 214 -256
2020-07-12 20:59:43 GMT 42.199219 -88.487320 5,025 265 214 0
2020-07-12 20:59:40 GMT 42.199509 -88.483315 5,025 265 214 -64
2020-07-12 20:59:36 GMT 42.199905 -88.478271 5,025 265 214 128
2020-07-12 20:59:33 GMT 42.200256 -88.473221 5,025 265 215 -64
2020-07-12 20:59:29 GMT 42.200535 -88.469513 5,025 265 215 64
2020-07-12 20:59:26 GMT 42.200912 -88.463913 5,025 265 214 64
2020-07-12 20:59:22 GMT 42.201233 -88.459663 5,025 265 213 -128
2020-07-12 20:59:18 GMT 42.201653 -88.453545 5,050 265 213 0
2020-07-12 20:59:15 GMT 42.201885 -88.450356 5,025 265 213 0
2020-07-12 20:59:12 GMT 42.202194 -88.445869 5,025 265 213 64
2020-07-12 20:59:08 GMT 42.202492 -88.441345 5,025 265 213 128
2020-07-12 20:59:04 GMT 42.202789 -88.436821 5,025 265 213 0
2020-07-12 20:59:01 GMT 42.203140 -88.431763 5,025 265 213 0
2020-07-12 20:58:54 GMT 42.203747 -88.422760 5,000 265 214 -192
2020-07-12 20:58:51 GMT 42.204025 -88.418716 5,025 265 214 -192
2020-07-12 20:58:48 GMT 42.204346 -88.413910 5,025 266 214 192
2020-07-12 20:58:42 GMT 42.204865 -88.405708 5,025 266 213 -640
2020-07-12 20:58:39 GMT 42.205051 -88.403023 5,025 266 213 -256
2020-07-12 20:58:34 GMT 42.205490 -88.395309 5,025 266 214 -64
2020-07-12 20:58:28 GMT 42.205887 -88.388588 5,025 266 214 -128
2020-07-12 20:58:23 GMT 42.206306 -88.381691 5,025 265 215 64
2020-07-12 20:58:19 GMT 42.206585 -88.376831 5,025 265 215 -448
2020-07-12 20:58:16 GMT 42.207001 -88.371277 5,050 264 211 -64
2020-07-12 20:58:13 GMT 42.207287 -88.367828 5,025 264 214 64
2020-07-12 20:58:10 GMT 42.207642 -88.363289 5,025 264 214 320
2020-07-12 20:58:07 GMT 42.207825 -88.360603 5,025 264 213 -256
2020-07-12 20:58:03 GMT 42.208355 -88.354034 5,050 264 212 -64
2020-07-12 20:58:00 GMT 42.208603 -88.351112 5,025 264 212 320
2020-07-12 20:57:57 GMT 42.208916 -88.347710 5,025 264 212 -192
2020-07-12 20:57:52 GMT 42.209564 -88.340363 5,025 263 211 -192
2020-07-12 20:57:47 GMT 42.210114 -88.334389 5,025 264 211 -192
2020-07-12 20:57:41 GMT 42.210732 -88.326759 5,025 264 212 -256
2020-07-12 20:57:38 GMT 42.211121 -88.321777 5,025 264 212 -64
2020-07-12 20:57:35 GMT 42.211475 -88.317307 5,025 264 213 192
2020-07-12 20:57:30 GMT 42.211990 -88.310661 5,025 265 214 256
2020-07-12 20:57:26 GMT 42.212311 -88.306702 5,025 265 214 0
2020-07-12 20:57:23 GMT 42.212585 -88.302734 5,025 265 214 -448
2020-07-12 20:57:20 GMT 42.212906 -88.298431 5,025 265 215 0
2020-07-12 20:57:17 GMT 42.213242 -88.293922 5,025 265 215 -64
2020-07-12 20:57:14 GMT 42.213593 -88.289375 5,025 265 215 128
2020-07-12 20:57:11 GMT 42.213943 -88.284859 5,025 265 216 -64
2020-07-12 20:57:07 GMT 42.214325 -88.279205 5,025 265 216 128
2020-07-12 20:57:03 GMT 42.214592 -88.275719 5,025 264 216 128
2020-07-12 20:56:59 GMT 42.215424 -88.265221 5,025 264 217 -64
2020-07-12 20:56:55 GMT 42.215424 -88.265221 5,025 265 217 0
2020-07-12 20:56:52 GMT 42.215805 -88.260651 5,025 265 217 0
2020-07-12 20:56:49 GMT 42.216454 -88.251511 5,025 265 217 0
2020-07-12 20:56:46 GMT 42.216454 -88.251511 5,025 265 216 256
2020-07-12 20:56:42 GMT 42.216736 -88.247742 5,025 265 216 128
2020-07-12 20:56:38 GMT 42.217155 -88.241867 5,025 265 216 -64
2020-07-12 20:56:35 GMT 42.217438 -88.237877 5,000 265 214 -64
2020-07-12 20:56:32 GMT 42.217712 -88.233887 5,025 265 214 -64
2020-07-12 20:56:29 GMT 42.217987 -88.229889 5,025 265 213 -64
2020-07-12 20:56:26 GMT 42.218269 -88.225899 5,025 265 212 256
2020-07-12 20:56:22 GMT 42.218739 -88.219574 5,025 264 211 0
2020-07-12 20:56:18 GMT 42.219040 -88.215599 5,025 264 211 0
2020-07-12 20:56:15 GMT 42.219482 -88.210632 5,025 264 211 0
2020-07-12 20:56:11 GMT 42.219818 -88.206169 5,025 265 209 -256
2020-07-12 20:56:07 GMT 42.220230 -88.200989 5,050 266 209 -384
2020-07-12 20:56:04 GMT 42.220367 -88.197090 5,050 268 208 -256
2020-07-12 20:56:01 GMT 42.220272 -88.192429 5,050 278 204 64
2020-07-12 20:55:57 GMT 42.219761 -88.187897 5,050 286 202 256
2020-07-12 20:55:54 GMT 42.218765 -88.183823 5,050 294 200 256
2020-07-12 20:55:49 GMT 42.216888 -88.179016 5,025 314 195 128
2020-07-12 20:55:46 GMT 42.215103 -88.175896 5,025 314 195 -64
2020-07-12 20:55:42 GMT 42.212860 -88.172714 5,025 316 195 -64
2020-07-12 20:55:39 GMT 42.210125 -88.169182 5,025 317 194 128
2020-07-12 20:55:36 GMT 42.208694 -88.167343 5,025 317 193 64
2020-07-12 20:55:33 GMT 42.206448 -88.164520 5,025 317 193 64
2020-07-12 20:55:30 GMT 42.204910 -88.162537 5,000 317 191 256
2020-07-12 20:55:25 GMT 42.202023 -88.158958 5,025 317 191 -64
2020-07-12 20:55:22 GMT 42.197369 -88.153084 5,025 318 192 192
2020-07-12 20:55:18 GMT 42.197369 -88.153084 5,025 317 191 -64
2020-07-12 20:55:15 GMT 42.195419 -88.150612 5,025 318 192 64
2020-07-12 20:55:11 GMT 42.192535 -88.147057 5,025 318 193 -64
2020-07-12 20:55:05 GMT 42.188828 -88.142441 5,000 318 196 -256
2020-07-12 20:55:01 GMT 42.185623 -88.138443 5,025 317 197 -128
2020-07-12 20:54:56 GMT 42.181915 -88.133759 5,025 317 199 64
2020-07-12 20:54:52 GMT 42.176888 -88.127403 5,025 317 200 64
2020-07-12 20:54:48 GMT 42.176888 -88.127403 5,025 317 201 64
2020-07-12 20:54:43 GMT 42.173538 -88.123085 5,025 317 201 64
2020-07-12 20:54:38 GMT 42.170288 -88.118965 5,025 317 202 -64
2020-07-12 20:54:34 GMT 42.165295 -88.112526 5,025 317 202 -64
2020-07-12 20:54:31 GMT 42.165295 -88.112526 5,025 317 200 0
2020-07-12 20:54:28 GMT 42.161133 -88.107170 5,025 317 200 64
2020-07-12 20:54:25 GMT 42.161133 -88.107170 5,025 317 200 128
2020-07-12 20:54:21 GMT 42.158871 -88.104218 5,025 317 200 64
2020-07-12 20:54:18 GMT 42.157520 -88.102493 5,025 317 200 0
2020-07-12 20:54:12 GMT 42.152679 -88.096237 5,025 317 200 -64
2020-07-12 20:54:08 GMT 42.149189 -88.091766 5,025 317 200 -64
2020-07-12 20:54:02 GMT 42.144890 -88.089394 5,000 310 198 -96
2020-07-12 20:53:59 GMT 42.142960 -88.086761 5,000 310 198 -96
2020-07-12 20:53:56 GMT 42.141029 -88.084137 5,000 310 198 64
2020-07-12 20:53:53 GMT 42.139099 -88.081512 5,000 310 198 64
2020-07-12 20:53:50 GMT 42.137169 -88.078880 5,000 310 198 64
2020-07-12 20:53:47 GMT 42.135239 -88.076263 5,000 310 198 64
2020-07-12 20:53:44 GMT 42.133320 -88.073631 5,000 310 198 64
2020-07-12 20:53:41 GMT 42.131390 -88.071007 5,000 310 198 64
2020-07-12 20:53:38 GMT 42.129459 -88.068382 5,000 310 198 64
2020-07-12 20:53:35 GMT 42.127529 -88.065758 5,000 310 198 64
2020-07-12 20:53:32 GMT 42.124851 -88.064163 5,000 300 199 64
2020-07-12 20:53:29 GMT 42.123322 -88.061073 5,000 300 199 64
2020-07-12 20:53:26 GMT 42.121288 -88.058502 5,000 291 199 64
2020-07-12 20:53:23 GMT 42.118832 -88.056381 5,000 283 207 64
2020-07-12 20:53:20 GMT 42.118160 -88.052628 5,000 282 205 64
2020-07-12 20:53:17 GMT 42.117191 -88.049004 5,000 282 205 64
2020-07-12 20:53:14 GMT 42.116451 -88.045311 5,000 282 205 64
2020-07-12 20:53:11 GMT 42.115879 -88.041557 5,000 281 205 64
2020-07-12 20:53:08 GMT 42.115280 -88.037880 5,000 281 206 64
2020-07-12 20:53:05 GMT 42.114819 -88.034187 5,000 282 208 64
2020-07-12 20:53:02 GMT 42.114220 -88.030403 5,000 282 208 64
2020-07-12 20:52:59 GMT 42.113651 -88.026718 5,000 282 209 64
2020-07-12 20:52:56 GMT 42.113041 -88.023109 5,000 282 209 0
2020-07-12 20:52:53 GMT 42.112431 -88.019249 5,000 282 212 0
2020-07-12 20:52:50 GMT 42.111790 -88.015427 5,000 281 212 0
2020-07-12 20:52:47 GMT 42.111092 -88.011742 5,000 281 213 0
2020-07-12 20:52:44 GMT 42.110733 -88.007477 5,000 281 213 0
2020-07-12 20:52:41 GMT 42.110085 -88.003616 5,025 283 212 0
2020-07-12 20:52:38 GMT 42.109440 -88.000229 5,000 281 214 0
2020-07-12 20:52:35 GMT 42.108799 -87.996269 5,000 282 217 0
2020-07-12 20:52:32 GMT 42.108189 -87.992401 5,000 282 219 0
2020-07-12 20:52:29 GMT 42.107460 -87.988289 5,100 281 217 0
2020-07-12 20:52:26 GMT 42.106831 -87.984329 5,100 281 216 0
2020-07-12 20:52:23 GMT 42.106098 -87.980324 5,100 281 215 32
2020-07-12 20:52:20 GMT 42.105492 -87.976349 5,100 281 215 32
2020-07-12 20:52:17 GMT 42.104370 -87.968338 5,100 281 212 32
2020-07-12 20:52:14 GMT 42.104370 -87.968338 5,100 281 212 32
2020-07-12 20:52:11 GMT 42.103668 -87.964432 5,100 281 210 32
2020-07-12 20:52:08 GMT 42.103168 -87.960503 5,000 281 210 -128
2020-07-12 20:52:05 GMT 42.102539 -87.956573 5,000 281 210 -128
2020-07-12 20:52:02 GMT 42.101940 -87.952759 5,000 281 207 832
2020-07-12 20:51:59 GMT 42.101479 -87.948914 5,000 281 207 832
2020-07-12 20:51:56 GMT 42.100979 -87.945099 5,000 281 208 832
2020-07-12 20:51:53 GMT 42.100368 -87.941322 5,000 282 207 1088
2020-07-12 20:51:50 GMT 42.099831 -87.937431 4,900 282 206 1088
2020-07-12 20:51:47 GMT 42.099178 -87.933647 4,775 283 204 1088
2020-07-12 20:51:44 GMT 42.098419 -87.929886 4,800 282 206 1088
2020-07-12 20:51:41 GMT 42.097900 -87.926109 4,700 282 205 1088
2020-07-12 20:51:38 GMT 42.097382 -87.922218 4,700 282 205 1088
2020-07-12 20:51:35 GMT 42.096710 -87.918541 4,700 282 203 1088
2020-07-12 20:51:32 GMT 42.095730 -87.915382 4,650 284 202 1024
2020-07-12 20:51:29 GMT 42.094872 -87.911972 4,450 285 202 1024
2020-07-12 20:51:26 GMT 42.093868 -87.904633 4,500 280 213 1088
2020-07-12 20:51:23 GMT 42.093540 -87.900993 4,400 283 214 1088
2020-07-12 20:51:20 GMT 42.093540 -87.900993 4,300 290 214 1088
2020-07-12 20:51:17 GMT 42.092548 -87.897232 4,300 290 214 1088
2020-07-12 20:51:14 GMT 42.091930 -87.893379 4,250 296 198 1792
2020-07-12 20:51:11 GMT 42.091190 -87.889549 4,000 313 204 1088
2020-07-12 20:51:08 GMT 42.089279 -87.886726 4,000 316 200 1088
2020-07-12 20:51:05 GMT 42.087421 -87.883240 3,900 325 188 1088
2020-07-12 20:51:02 GMT 42.085361 -87.881058 3,900 325 188 1088
2020-07-12 20:50:59 GMT 42.083351 -87.878632 3,800 339 189 1088
2020-07-12 20:50:56 GMT 42.081181 -87.876999 3,600 348 202 128
2020-07-12 20:50:53 GMT 42.078468 -87.876198 3,600 349 203 128
2020-07-12 20:50:50 GMT 42.075771 -87.875366 3,500 352 205 128
2020-07-12 20:50:47 GMT 42.072880 -87.874870 3,500 355 207 128
2020-07-12 20:50:44 GMT 42.067371 -87.874573 3,300 358 204 1536
2020-07-12 20:50:41 GMT 42.067371 -87.874573 3,300 357 206 128
2020-07-12 20:50:38 GMT 42.064548 -87.874458 3,200 356 211 128
2020-07-12 20:50:35 GMT 42.061691 -87.874283 3,200 356 209 128
2020-07-12 20:50:32 GMT 42.058788 -87.874062 3,100 356 205 128
2020-07-12 20:50:29 GMT 42.056049 -87.873833 3,000 356 213 128
2020-07-12 20:50:26 GMT 42.052971 -87.873596 2,900 355 203 128
2020-07-12 20:50:23 GMT 42.050289 -87.873383 2,900 355 211 128
2020-07-12 20:50:20 GMT 42.047390 -87.873077 2,900 355 206 128
2020-07-12 20:50:17 GMT 42.041740 -87.872482 2,650 356 205 128
2020-07-12 20:50:14 GMT 42.041740 -87.872482 2,625 356 207 1216
2020-07-12 20:50:11 GMT 42.038830 -87.872169 2,525 354 211 128
2020-07-12 20:50:08 GMT 42.035839 -87.871918 2,525 354 207 128
2020-07-12 20:50:05 GMT 42.030251 -87.871170 2,500 355 196 896
2020-07-12 20:50:02 GMT 42.030251 -87.871170 2,400 356 202 896
2020-07-12 20:49:59 GMT 42.027489 -87.870972 2,300 355 201 896
2020-07-12 20:49:56 GMT 42.024738 -87.870667 2,275 356 206 896
2020-07-12 20:49:53 GMT 42.021839 -87.870491 2,200 357 203 -96
2020-07-12 20:49:50 GMT 42.019070 -87.870369 2,200 353 189 416
2020-07-12 20:49:47 GMT 42.016441 -87.869972 2,100 356 196 416
2020-07-12 20:49:44 GMT 42.013741 -87.869766 2,100 356 193 416
2020-07-12 20:49:41 GMT 42.011051 -87.869568 2,100 353 187 416
2020-07-12 20:49:38 GMT 42.008518 -87.869232 2,075 355 187 416
2020-07-12 20:49:35 GMT 42.005959 -87.868919 2,000 355 180 -608
2020-07-12 20:49:32 GMT 42.003399 -87.868828 2,000 352 169 1632
2020-07-12 20:49:29 GMT 42.001041 -87.868553 1,950 353 167 1632
2020-07-12 20:49:26 GMT 41.998760 -87.868362 1,950 355 169 1632
2020-07-12 20:49:23 GMT 41.996498 -87.868271 1,800 0 170 1632
2020-07-12 20:49:20 GMT 41.994228 -87.868362 1,650 14 161 1632
2020-07-12 20:49:17 GMT 41.992069 -87.868851 1,650 20 164 1632
2020-07-12 20:49:14 GMT 41.990040 -87.869926 1,575 29 163 1632
2020-07-12 20:49:11 GMT 41.988159 -87.871521 1,450 44 166 1632
2020-07-12 20:49:08 GMT 41.985340 -87.876083 1,450 58 159 1632
2020-07-12 20:49:05 GMT 41.985340 -87.876083 1,400 64 156 1632
2020-07-12 20:49:02 GMT 41.984459 -87.878670 1,300 80 156 1632
2020-07-12 20:48:59 GMT 41.983971 -87.881531 1,100 85 151 1632
2020-07-12 20:48:56 GMT 41.983791 -87.884293 1,100 88 154 1632
2020-07-12 20:48:53 GMT 41.983810 -87.889923 950 90 149 128
2020-07-12 20:48:50 GMT 41.983810 -87.889923 925 90 151 2112
2020-07-12 20:48:47 GMT 41.983871 -87.892807 775 90 152 128
2020-07-12 20:48:44 GMT 41.983871 -87.895599 775 90 149 128
2020-07-12 20:48:41 GMT 41.983891 -87.898407 700 90 153 128
2020-07-12 20:48:38 GMT 41.983891 -87.901169 700 90 140 -256
2020-07-12 20:48:35 GMT 41.983910 -87.903809 700 90 135 0
2020-07-12 20:48:32 GMT 41.983898 -87.906288 0 91 120 0
2020-07-12 20:48:29 GMT 41.983921 -87.908478 0 89 112 -32
2020-07-12 20:48:26 GMT 41.983929 -87.910530 0 89 103
2020-07-12 20:48:23 GMT 41.983921 -87.912292 0 89 86
2020-07-12 20:48:20 GMT 41.983891 -87.913834 0 91 68
2020-07-12 20:48:17 GMT 41.983910 -87.915131 0 90 57
2020-07-12 20:48:14 GMT 41.983929 -87.916168 0 88 47
2020-07-12 20:48:11 GMT 41.983898 -87.916946 0 88 34
2020-07-12 20:48:08 GMT 41.983898 -87.917358 0 94 7
2020-07-12 20:48:05 GMT 41.983898 -87.917526 0 98 5
2020-07-12 20:48:02 GMT 41.983898 -87.917618 0 103 5
2020-07-12 20:47:59 GMT 41.983910 -87.917709 0 89 3
2020-07-12 20:47:56 GMT 41.983929 -87.917717 0 88 9
2020-07-12 20:47:53 GMT 41.983952 -87.917900 0 81 7
2020-07-12 20:47:50 GMT 41.983921 -87.917976 0 53 6
2020-07-12 20:47:47 GMT 41.983879 -87.918152 0 16 6
2020-07-12 20:47:44 GMT 41.983780 -87.918190 0 4 8
2020-07-12 20:47:41 GMT 41.983681 -87.918213 0 3 9
2020-07-12 20:47:38 GMT 41.983250 -87.918190 0 0 18
2020-07-12 20:47:35 GMT 41.983250 -87.918190 0 3 20
2020-07-12 20:47:32 GMT 41.982971 -87.918228 0 353 20
2020-07-12 20:47:29 GMT 41.982700 -87.918228 0 355 22
2020-07-12 20:47:26 GMT 41.982079 -87.918159 0 359 23
2020-07-12 20:47:23 GMT 41.982079 -87.918159 0 5 18
2020-07-12 20:47:20 GMT 41.981831 -87.918213 0 1 20
2020-07-12 20:47:17 GMT 41.981529 -87.918221 0 358 20
2020-07-12 20:47:14 GMT 41.981270 -87.918198 0 5 23
2020-07-12 20:47:11 GMT 41.980942 -87.918228 0 347 21
2020-07-12 20:47:08 GMT 41.980679 -87.918152 0 326 23
2020-07-12 20:47:05 GMT 41.980389 -87.917976 0 322 20
2020-07-12 20:47:02 GMT 41.980179 -87.917763 0 321 20
2020-07-12 20:46:59 GMT 41.979950 -87.917519 0 317 21
2020-07-12 20:46:56 GMT 41.979549 -87.917023 0 317 20
2020-07-12 20:46:53 GMT 41.979549 -87.917023 0 324 20
2020-07-12 20:46:50 GMT 41.979321 -87.916817 0 321 20
2020-07-12 20:46:47 GMT 41.979130 -87.916580 0 319 20
2020-07-12 20:46:44 GMT 41.978920 -87.916351 0 317 18
2020-07-12 20:46:41 GMT 41.978710 -87.916092 0 321 16
2020-07-12 20:46:38 GMT 41.978550 -87.915909 0 323 16
2020-07-12 20:46:35 GMT 41.978371 -87.915741 0 317 17
2020-07-12 20:46:32 GMT 41.978210 -87.915520 0 315 18
2020-07-12 20:46:29 GMT 41.978039 -87.915337 0 318 14
2020-07-12 20:46:26 GMT 41.977879 -87.915176 0 326 18
2020-07-12 20:46:23 GMT 41.977718 -87.914970 0 329 16
2020-07-12 20:46:20 GMT 41.977531 -87.914848 0 289 18
2020-07-12 20:46:17 GMT 41.977371 -87.914574 0 264 17
2020-07-12 20:46:14 GMT 41.977390 -87.914284 0 253 15
2020-07-12 20:46:11 GMT 41.977551 -87.913788 0 246 15
2020-07-12 20:46:08 GMT 41.977551 -87.913788 0 255 15
2020-07-12 20:46:05 GMT 41.977612 -87.913559 0 262 15
2020-07-12 20:46:02 GMT 41.977650 -87.913269 0 274 14
2020-07-12 20:45:59 GMT 41.977600 -87.913033 0 322 12
2020-07-12 20:45:56 GMT 41.977310 -87.912788 0 345 12
2020-07-12 20:45:53 GMT 41.977310 -87.912788 0 342 14
2020-07-12 20:45:50 GMT 41.977119 -87.912743 0 330 14
2020-07-12 20:45:47 GMT 41.976959 -87.912598 0 327 16
2020-07-12 20:45:44 GMT 41.976761 -87.912422 0 322 16
2020-07-12 20:45:41 GMT 41.976372 -87.912086 0 322 18
2020-07-12 20:45:38 GMT 41.976372 -87.912086 0 328 16
2020-07-12 20:45:35 GMT 41.976212 -87.911903 0 329 17
2020-07-12 20:45:32 GMT 41.976021 -87.911751 0 317 16
2020-07-12 20:45:29 GMT 41.975842 -87.911552 0 321 16
2020-07-12 20:45:26 GMT 41.975639 -87.911362 0 331 14
2020-07-12 20:45:23 GMT 41.975491 -87.911217 0 323 15
2020-07-12 20:45:20 GMT 41.975330 -87.911034 0 321 13
2020-07-12 20:45:17 GMT 41.975182 -87.910912 0 325 14
2020-07-12 20:45:14 GMT 41.975029 -87.910721 0 338 15
2020-07-12 20:45:11 GMT 41.974861 -87.910583 0 323 15
2020-07-12 20:45:08 GMT 41.974682 -87.910423 0 314 15
2020-07-12 20:45:05 GMT 41.974510 -87.910187 0 319 17
2020-07-12 20:45:02 GMT 41.974369 -87.910042 0 320 13
2020-07-12 20:44:59 GMT 41.974239 -87.909912 0 310 16
2020-07-12 20:44:56 GMT 41.974091 -87.909714 0 317 14
2020-07-12 20:44:53 GMT 41.973980 -87.909554 0 321 18
2020-07-12 20:44:50 GMT 41.973782 -87.909340 0 320 18
2020-07-12 20:44:47 GMT 41.973438 -87.908913 0 309 18
2020-07-12 20:44:44 GMT 41.973438 -87.908913 0 316 19
2020-07-12 20:44:41 GMT 41.973221 -87.908630 0 315 13
2020-07-12 20:44:38 GMT 41.973068 -87.908440 0 313 17
2020-07-12 20:44:35 GMT 41.972939 -87.908218 0 315 16
2020-07-12 20:44:32 GMT 41.972618 -87.907791 0 307 14
2020-07-12 20:44:29 GMT 41.972618 -87.907791 0 304 16
2020-07-12 20:44:26 GMT 41.972488 -87.907532 0 296 17
2020-07-12 20:44:23 GMT 41.972382 -87.907280 0 295 16
2020-07-12 20:44:20 GMT 41.972290 -87.907043 0 282 12
2020-07-12 20:44:17 GMT 41.972229 -87.906769 0 276 14
2020-07-12 20:44:14 GMT 41.972198 -87.906487 0 275 12
2020-07-12 20:44:11 GMT 41.972179 -87.906212 0 278 11
2020-07-12 20:44:08 GMT 41.972130 -87.905998 0 277 16
2020-07-12 20:44:05 GMT 41.972160 -87.905731 0 261 15
2020-07-12 20:44:02 GMT 41.972149 -87.905502 0 271 11
2020-07-12 20:43:59 GMT 41.972111 -87.905273 0 271 13
2020-07-12 20:43:56 GMT 41.972099 -87.905022 0 275 12
2020-07-12 20:43:53 GMT 41.972092 -87.904808 0 270 10
2020-07-12 20:43:50 GMT 41.972080 -87.904617 0 273 14
2020-07-12 20:43:47 GMT 41.972061 -87.904388 0 264 9
2020-07-12 20:43:44 GMT 41.972092 -87.904213 0 278 10
2020-07-12 20:43:41 GMT 41.972069 -87.904030 0 268 12
2020-07-12 20:43:38 GMT 41.972080 -87.903801 0 275 11
2020-07-12 20:43:35 GMT 41.972061 -87.903618 0 275 11
2020-07-12 20:43:32 GMT 41.972038 -87.903412 0 267 9
2020-07-12 20:43:29 GMT 41.972038 -87.903267 0 265 13
2020-07-12 20:43:26 GMT 41.972061 -87.903038 0 269 11
2020-07-12 20:43:23 GMT 41.972061 -87.902840 0 267 10
2020-07-12 20:43:20 GMT 41.972061 -87.902672 0 260 12
2020-07-12 20:43:17 GMT 41.972019 -87.902481 0 247 12
2020-07-12 20:43:14 GMT 41.972050 -87.902290 0 223 9
2020-07-12 20:43:11 GMT 41.972179 -87.902107 0 186 8
2020-07-12 20:43:08 GMT 41.972420 -87.902077 0 174 8
2020-07-12 20:43:05 GMT 41.972420 -87.902077 0 182 8
2020-07-12 20:43:02 GMT 41.972542 -87.902100 0 165 6
2020-07-12 20:42:59 GMT 41.972672 -87.902077 0 184 4

Making use of Plane Finder data

You are free to use the raw flight data, aircraft information and images provided in this report for your own purposes provided the data is correctly attributed to Plane Finder. We ask that you please credit Plane Finder and link to planefinder.net in close proximity to the content.

Optionally one of the following logos (no smaller then 150x24px) can be used and must link to planefinder.net

Embedding the Plane Finder map

You are welcome to embed the Plane Finder playback map on your website to offer visitors a more interactive experience. We suggest using the following HTML code:

<iframe src="//planefinder.net/data/report/AA3594-N905JH-7700-squawk-2020-07-12/map" width="800" height="600" seamless="seamless"></iframe>

Where our data comes from

Plane Finder has a global network of data feeds and antenna radars that receive data broadcast directly from aircraft. The primary technologies used are ADS-B and MLAT. We also show feeds from the FAA and a FLARM glider feed.

Click here to find out more about the Plane Finder network.

How we collect our data